Observation data for Big Lake on 05/27/2019      Previous  Date  Next       Current Mesonet Observations  Soil Data  Daily Summary Page  Observations in Plain Language
KBI1 270500Z 17009KT 23/18 A2992 RMK A01 T02260183  RH  077%=      5-min Rain = 0
KBI1 270501Z 16008KT 23/18 A2992 RMK A01 T02260183  RH  077%=      5-min Rain = 0
KBI1 270502Z 17009KT 23/18 A2992 RMK A01 T02260183  RH  077%=      5-min Rain = 0
KBI1 270503Z 16010KT 23/18 A2992 RMK A01 T02260183  RH  077%=      5-min Rain = 0
KBI1 270504Z 16009KT 23/18 A2992 RMK A01 T02250183  RH  077%=      5-min Rain = 0
KBI1 270505Z 16009G14KT 23/18 A2992 RMK A01 T02260183  RH  077%=      5-min Rain = 0
KBI1 270506Z 16009KT 23/18 A2992 RMK A01 T02260182  RH  076%=      5-min Rain = 0
KBI1 270507Z 16010KT 23/18 A2992 RMK A01 T02260183  RH  076%=      5-min Rain = 0
KBI1 270508Z 16008KT 23/18 A2992 RMK A01 T02260183  RH  076%=      5-min Rain = 0
KBI1 270509Z 16009KT 23/18 A2992 RMK A01 T02260183  RH  076%=      5-min Rain = 0
KBI1 270510Z 16008KT 23/18 A2992 RMK A01 T02260183  RH  077%=      5-min Rain = 0
KBI1 270511Z 16008KT 23/18 A2992 RMK A01 T02250183  RH  077%=      5-min Rain = 0
KBI1 270512Z 16008KT 23/18 A2992 RMK A01 T02250182  RH  077%=      5-min Rain = 0
KBI1 270513Z 16009KT 23/18 A2992 RMK A01 T02250182  RH  077%=      5-min Rain = 0
KBI1 270514Z 16008G13KT 23/18 A2992 RMK A01 T02250183  RH  077%=      5-min Rain = 0
KBI1 270515Z 16009KT 23/18 A2992 RMK A01 T02250183  RH  077%=      5-min Rain = 0
KBI1 270516Z 16009KT 23/18 A2992 RMK A01 T02250182  RH  077%=      5-min Rain = 0
KBI1 270517Z 16009KT 23/18 A2992 RMK A01 T02250182  RH  077%=      5-min Rain = 0
KBI1 270518Z 16008KT 23/18 A2992 RMK A01 T02250182  RH  077%=      5-min Rain = 0
KBI1 270519Z 16009KT 23/18 A2992 RMK A01 T02250182  RH  077%=      5-min Rain = 0
KBI1 270520Z 16009KT 23/18 A2992 RMK A01 T02250182  RH  077%=      5-min Rain = 0
KBI1 270521Z 16010KT 23/18 A2992 RMK A01 T02250182  RH  077%=      5-min Rain = 0
KBI1 270522Z 16009KT 23/18 A2992 RMK A01 T02250182  RH  077%=      5-min Rain = 0
KBI1 270523Z 16008KT 23/18 A2992 RMK A01 T02250182  RH  077%=      5-min Rain = 0
KBI1 270524Z 16010KT 23/18 A2992 RMK A01 T02250182  RH  077%=      5-min Rain = 0
KBI1 270525Z 16010KT 23/18 A2992 RMK A01 T02250182  RH  077%=      5-min Rain = 0
KBI1 270526Z 16010KT 23/18 A2992 RMK A01 T02250182  RH  077%=      5-min Rain = 0
KBI1 270527Z 16009KT 23/18 A2992 RMK A01 T02250182  RH  077%=      5-min Rain = 0
KBI1 270528Z 16011KT 23/18 A2991 RMK A01 T02250182  RH  077%=      5-min Rain = 0
KBI1 270529Z 16010KT 23/18 A2991 RMK A01 T02250182  RH  077%=      5-min Rain = 0
KBI1 270530Z 16011KT 23/18 A2991 RMK A01 T02250182  RH  077%=      5-min Rain = 0
KBI1 270531Z 17011KT 23/18 A2991 RMK A01 T02250182  RH  077%=      5-min Rain = 0
KBI1 270532Z 16011KT 23/18 A2991 RMK A01 T02250182  RH  077%=      5-min Rain = 0
KBI1 270533Z 16010KT 23/18 A2991 RMK A01 T02250183  RH  077%=      5-min Rain = 0
KBI1 270534Z 16011KT 23/18 A2991 RMK A01 T02250183  RH  077%=      5-min Rain = 0
KBI1 270535Z 16010KT 23/18 A2991 RMK A01 T02250182  RH  077%=      5-min Rain = 0
KBI1 270536Z 16011KT 23/18 A2991 RMK A01 T02250182  RH  077%=      5-min Rain = 0
KBI1 270537Z 17010KT 23/18 A2991 RMK A01 T02250182  RH  077%=      5-min Rain = 0
KBI1 270538Z 16011KT 23/18 A2991 RMK A01 T02250183  RH  077%=      5-min Rain = 0
KBI1 270539Z 16011KT 23/18 A2991 RMK A01 T02250182  RH  077%=      5-min Rain = 0
KBI1 270540Z 16013G18KT 23/18 A2991 RMK A01 T02250182  RH  077%=      5-min Rain = 0
KBI1 270541Z 16011KT 23/18 A2991 RMK A01 T02260183  RH  076%=      5-min Rain = 0
KBI1 270542Z 16012G17KT 23/18 A2991 RMK A01 T02260183  RH  076%=      5-min Rain = 0
KBI1 270543Z 16015KT 23/18 A2991 RMK A01 T02260182  RH  076%=      5-min Rain = 0
KBI1 270544Z 16012KT 23/18 A2991 RMK A01 T02280183  RH  076%=      5-min Rain = 0
KBI1 270545Z 16012KT 23/18 A2991 RMK A01 T02280183  RH  076%=      5-min Rain = 0
KBI1 270546Z 17012KT 23/18 A2991 RMK A01 T02280183  RH  076%=      5-min Rain = 0
KBI1 270547Z 16014KT 23/18 A2991 RMK A01 T02280183  RH  076%=      5-min Rain = 0
KBI1 270548Z 16015G20KT 23/18 A2991 RMK A01 T02290183  RH  075%=      5-min Rain = 0
KBI1 270549Z 16012KT 23/18 A2991 RMK A01 T02290183  RH  075%=      5-min Rain = 0
KBI1 270550Z 16011KT 23/18 A2991 RMK A01 T02290183  RH  075%=      5-min Rain = 0
KBI1 270551Z 17010G15KT 23/18 A2991 RMK A01 T02290183  RH  076%=      5-min Rain = 0
KBI1 270552Z 16012KT 23/18 A2991 RMK A01 T02280183  RH  076%=      5-min Rain = 0
KBI1 270553Z 16013KT 23/18 A2991 RMK A01 T02280183  RH  076%=      5-min Rain = 0
KBI1 270554Z 16013G18KT 23/18 A2991 RMK A01 T02280183  RH  076%=      5-min Rain = 0
KBI1 270555Z 16013KT 23/18 A2991 RMK A01 T02280183  RH  076%=      5-min Rain = 0
KBI1 270556Z 16012KT 23/18 A2991 RMK A01 T02280184  RH  076%=      5-min Rain = 0
KBI1 270557Z 16015KT 23/18 A299 RMK A01 T02280184  RH  076%=      5-min Rain = 0
KBI1 270558Z 16014KT 23/18 A299 RMK A01 T02280184  RH  076%=      5-min Rain = 0
KBI1 270559Z 17015KT 23/18 A299 RMK A01 T02290184  RH  076%=      5-min Rain = 0
KBI1 270600Z 16015G20KT 23/18 A299 RMK A01 T02290184  RH  076%=      5-min Rain = 0
KBI1 270601Z 16014KT 23/18 A299 RMK A01 T02300184  RH  076%=      5-min Rain = 0
KBI1 270602Z 17015KT 23/19 A299 RMK A01 T02300185  RH  076%=      5-min Rain = 0
KBI1 270603Z 16013G18KT 23/19 A299 RMK A01 T02300185  RH  076%=      5-min Rain = 0
KBI1 270604Z 16015KT 23/19 A2991 RMK A01 T02300185  RH  076%=      5-min Rain = 0
KBI1 270605Z 17016KT 23/19 A299 RMK A01 T02300185  RH  076%=      5-min Rain = 0
KBI1 270606Z 16016KT 23/19 A299 RMK A01 T02300186  RH  076%=      5-min Rain = 0
KBI1 270607Z 17015G21KT 23/19 A299 RMK A01 T02310186  RH  076%=      5-min Rain = 0
KBI1 270608Z 16015KT 23/19 A299 RMK A01 T02310186  RH  076%=      5-min Rain = 0
KBI1 270609Z 16014KT 23/19 A299 RMK A01 T02310186  RH  076%=      5-min Rain = 0
KBI1 270610Z 16013KT 23/19 A299 RMK A01 T02310186  RH  076%=      5-min Rain = 0
KBI1 270611Z 16017KT 23/19 A299 RMK A01 T02310187  RH  076%=      5-min Rain = 0
KBI1 270612Z 16014KT 23/19 A299 RMK A01 T02300187  RH  076%=      5-min Rain = 0
KBI1 270613Z 16013KT 23/19 A299 RMK A01 T02300187  RH  076%=      5-min Rain = 0
KBI1 270614Z 16016G22KT 23/19 A299 RMK A01 T02300187  RH  077%=      5-min Rain = 0
KBI1 270615Z 16017G23KT 23/19 A299 RMK A01 T02300187  RH  077%=      5-min Rain = 0
KBI1 270616Z 16015G20KT 23/19 A299 RMK A01 T02300187  RH  077%=      5-min Rain = 0
KBI1 270617Z 17017G24KT 23/19 A299 RMK A01 T02300187  RH  077%=      5-min Rain = 0
KBI1 270618Z 16015KT 23/19 A299 RMK A01 T02300187  RH  077%=      5-min Rain = 0
KBI1 270619Z 17016G21KT 23/19 A299 RMK A01 T02300188  RH  077%=      5-min Rain = 0
KBI1 270620Z 17016KT 23/19 A299 RMK A01 T02300188  RH  077%=      5-min Rain = 0
KBI1 270621Z 17015G22KT 23/19 A299 RMK A01 T02300188  RH  077%=      5-min Rain = 0
KBI1 270622Z 17014G21KT 23/19 A299 RMK A01 T02300188  RH  077%=      5-min Rain = 0
KBI1 270623Z 16015G20KT 23/19 A299 RMK A01 T02300188  RH  077%=      5-min Rain = 0
KBI1 270624Z 16015KT 23/19 A299 RMK A01 T02300188  RH  078%=      5-min Rain = 0
KBI1 270625Z 16013KT 23/19 A299 RMK A01 T02300189  RH  078%=      5-min Rain = 0
KBI1 270626Z 16017KT 23/19 A299 RMK A01 T02300189  RH  078%=      5-min Rain = 0
KBI1 270627Z 16017G23KT 23/19 A299 RMK A01 T02290189  RH  078%=      5-min Rain = 0
KBI1 270628Z 16016KT 23/19 A299 RMK A01 T02290189  RH  078%=      5-min Rain = 0
KBI1 270629Z 16016G21KT 23/19 A299 RMK A01 T02290189  RH  078%=      5-min Rain = 0
KBI1 270630Z 16017KT 23/19 A299 RMK A01 T02300190  RH  078%=      5-min Rain = 0
KBI1 270631Z 17016G21KT 23/19 A299 RMK A01 T02290189  RH  078%=      5-min Rain = 0
KBI1 270632Z 16014KT 23/19 A299 RMK A01 T02290190  RH  078%=      5-min Rain = 0
KBI1 270633Z 17016G22KT 23/19 A299 RMK A01 T02290190  RH  079%=      5-min Rain = 0
KBI1 270634Z 16014G20KT 23/19 A299 RMK A01 T02290190  RH  079%=      5-min Rain = 0
KBI1 270635Z 16019KT 23/19 A299 RMK A01 T02290190  RH  079%=      5-min Rain = 0
KBI1 270636Z 16018G23KT 23/19 A299 RMK A01 T02280190  RH  079%=      5-min Rain = 0
KBI1 270637Z 17017G22KT 23/19 A299 RMK A01 T02280190  RH  079%=      5-min Rain = 0
KBI1 270638Z 16016G21KT 23/19 A2989 RMK A01 T02280190  RH  079%=      5-min Rain = 0
KBI1 270639Z 17015G20KT 23/19 A299 RMK A01 T02280190  RH  079%=      5-min Rain = 0
KBI1 270640Z 16015KT 23/19 A2989 RMK A01 T02280191  RH  079%=      5-min Rain = 0
KBI1 270641Z 17016G21KT 23/19 A2989 RMK A01 T02290191  RH  079%=      5-min Rain = 0
KBI1 270642Z 17017G23KT 23/19 A2989 RMK A01 T02290191  RH  080%=      5-min Rain = 0
KBI1 270643Z 16018KT 23/19 A2989 RMK A01 T02280192  RH  080%=      5-min Rain = 0
KBI1 270644Z 16016G21KT 23/19 A2989 RMK A01 T02290192  RH  080%=      5-min Rain = 0
KBI1 270645Z 16013KT 23/19 A2989 RMK A01 T02280192  RH  080%=      5-min Rain = 0
KBI1 270646Z 16014G20KT 23/19 A2989 RMK A01 T02280192  RH  080%=      5-min Rain = 0
KBI1 270647Z 16015KT 23/19 A2989 RMK A01 T02280193  RH  080%=      5-min Rain = 0
KBI1 270648Z 16016G22KT 23/19 A2989 RMK A01 T02280193  RH  080%=      5-min Rain = 0
KBI1 270649Z 16014G20KT 23/19 A2989 RMK A01 T02280192  RH  080%=      5-min Rain = 0
KBI1 270650Z 17014G21KT 23/19 A2989 RMK A01 T02280192  RH  081%=      5-min Rain = 0
KBI1 270651Z 16015G20KT 23/19 A2989 RMK A01 T02270193  RH  081%=      5-min Rain = 0
KBI1 270652Z 17016KT 23/19 A2989 RMK A01 T02270193  RH  081%=      5-min Rain = 0
KBI1 270653Z 16014G21KT 23/19 A2989 RMK A01 T02270193  RH  081%=      5-min Rain = 0
KBI1 270654Z 16013KT 23/19 A2989 RMK A01 T02270193  RH  081%=      5-min Rain = 0
KBI1 270655Z 16014G19KT 23/19 A2989 RMK A01 T02270193  RH  081%=      5-min Rain = 0
KBI1 270656Z 17014G20KT 23/19 A2989 RMK A01 T02270194  RH  082%=      5-min Rain = 0
KBI1 270657Z 16014G20KT 23/19 A2989 RMK A01 T02270194  RH  082%=      5-min Rain = 0
KBI1 270658Z 16013KT 23/19 A2989 RMK A01 T02260193  RH  082%=      5-min Rain = 0
KBI1 270659Z 16013KT 23/19 A2989 RMK A01 T02260194  RH  082%=      5-min Rain = 0
KBI1 270700Z 16013KT 23/19 A2989 RMK A01 T02260193  RH  082%=      5-min Rain = 0
KBI1 270701Z 16012KT 23/19 A2989 RMK A01 T02260194  RH  082%=      5-min Rain = 0
KBI1 270702Z 16012KT 23/19 A2989 RMK A01 T02250194  RH  082%=      5-min Rain = 0
KBI1 270703Z 16013G18KT 23/19 A2989 RMK A01 T02250194  RH  083%=      5-min Rain = 0
KBI1 270704Z 16015KT 23/19 A2989 RMK A01 T02250194  RH  083%=      5-min Rain = 0
KBI1 270705Z 17012G18KT 23/19 A2989 RMK A01 T02250194  RH  083%=      5-min Rain = 0
KBI1 270706Z 16015KT 23/19 A2989 RMK A01 T02250194  RH  083%=      5-min Rain = 0
KBI1 270707Z 16018G23KT 23/19 A2989 RMK A01 T02250194  RH  083%=      5-min Rain = 0
KBI1 270708Z 16017KT 23/19 A2989 RMK A01 T02250194  RH  083%=      5-min Rain = 0
KBI1 270709Z 16016G21KT 23/19 A2989 RMK A01 T02250194  RH  082%=      5-min Rain = 0
KBI1 270710Z 17016KT 23/19 A2989 RMK A01 T02250194  RH  082%=      5-min Rain = 0
KBI1 270711Z 16015KT 23/19 A2989 RMK A01 T02260194  RH  083%=      5-min Rain = 0
KBI1 270712Z 16017G22KT 23/20 A2989 RMK A01 T02250195  RH  083%=      5-min Rain = 0
KBI1 270713Z 16016G23KT 23/20 A2989 RMK A01 T02250195  RH  083%=      5-min Rain = 0
KBI1 270714Z 16019G25KT 23/20 A2989 RMK A01 T02250195  RH  083%=      5-min Rain = 0
KBI1 270715Z 16018KT 23/20 A2989 RMK A01 T02250195  RH  083%=      5-min Rain = 0
KBI1 270716Z 16018G25KT 23/20 A2989 RMK A01 T02250195  RH  083%=      5-min Rain = 0
KBI1 270717Z 17019G24KT 23/20 A2989 RMK A01 T02250195  RH  083%=      5-min Rain = 0
KBI1 270718Z 17017KT 23/20 A2989 RMK A01 T02250195  RH  083%=      5-min Rain = 0
KBI1 270719Z 17016G22KT 23/20 A2989 RMK A01 T02250195  RH  083%=      5-min Rain = 0
KBI1 270720Z 16015G23KT 23/20 A2989 RMK A01 T02250195  RH  083%=      5-min Rain = 0
KBI1 270721Z 17019G26KT 23/20 A2989 RMK A01 T02250195  RH  083%=      5-min Rain = 0
KBI1 270722Z 16020G28KT 23/19 A2989 RMK A01 T02250194  RH  083%=      5-min Rain = 0
KBI1 270723Z 17020KT 23/19 A2989 RMK A01 T02250194  RH  083%=      5-min Rain = 0
KBI1 270724Z 16017G22KT 23/19 A2989 RMK A01 T02250194  RH  083%=      5-min Rain = 0
KBI1 270725Z 17016G22KT 23/20 A2988 RMK A01 T02250195  RH  083%=      5-min Rain = 0
KBI1 270726Z 17020G25KT 23/20 A2989 RMK A01 T02250195  RH  083%=      5-min Rain = 0
KBI1 270727Z 17019KT 23/20 A2989 RMK A01 T02250195  RH  083%=      5-min Rain = 0
KBI1 270728Z 17019G24KT 23/20 A2988 RMK A01 T02250195  RH  083%=      5-min Rain = 0
KBI1 270729Z 16017KT 23/19 A2989 RMK A01 T02250194  RH  083%=      5-min Rain = 0
KBI1 270730Z 17018KT 23/19 A2989 RMK A01 T02250194  RH  083%=      5-min Rain = 0
KBI1 270731Z 17016G22KT 22/19 A2989 RMK A01 T02240194  RH  083%=      5-min Rain = 0
KBI1 270732Z 17015G22KT 22/19 A2989 RMK A01 T02240194  RH  083%=      5-min Rain = 0
KBI1 270733Z 17016G22KT 22/19 A2988 RMK A01 T02230194  RH  084%=      5-min Rain = 0
KBI1 270734Z 17015KT 22/19 A2988 RMK A01 T02230194  RH  084%=      5-min Rain = 0
KBI1 270735Z 17022G27KT 22/19 A2988 RMK A01 T02230194  RH  084%=      5-min Rain = 0
KBI1 270736Z 17018KT 22/19 A2989 RMK A01 T02230194  RH  084%=      5-min Rain = 0
KBI1 270737Z 17020G25KT 22/19 A2989 RMK A01 T02230194  RH  084%=      5-min Rain = 0
KBI1 270738Z 17018KT 22/19 A2989 RMK A01 T02230194  RH  084%=      5-min Rain = 0
KBI1 270739Z 17021G27KT 22/19 A2989 RMK A01 T02230194  RH  084%=      5-min Rain = 0
KBI1 270740Z 17015KT 22/19 A2989 RMK A01 T02230194  RH  083%=      5-min Rain = 0
KBI1 270741Z 17020KT 22/19 A2989 RMK A01 T02230194  RH  083%=      5-min Rain = 0
KBI1 270742Z 17019KT 22/19 A2988 RMK A01 T02230194  RH  084%=      5-min Rain = 0
KBI1 270743Z 17017KT 22/19 A2989 RMK A01 T02230194  RH  084%=      5-min Rain = 0
KBI1 270744Z 17018KT 22/19 A2988 RMK A01 T02230194  RH  084%=      5-min Rain = 0
KBI1 270745Z 17019KT 22/19 A2988 RMK A01 T02220194  RH  084%=      5-min Rain = 0
KBI1 270746Z 17018KT 22/19 A2988 RMK A01 T02230194  RH  084%=      5-min Rain = 0
KBI1 270747Z 17017KT 22/19 A2988 RMK A01 T02220194  RH  084%=      5-min Rain = 0
KBI1 270748Z 17020G26KT 22/19 A2988 RMK A01 T02220194  RH  084%=      5-min Rain = 0
KBI1 270749Z 17018KT 22/19 A2988 RMK A01 T02220194  RH  084%=      5-min Rain = 0
KBI1 270750Z 17016G22KT 22/19 A2988 RMK A01 T02220194  RH  084%=      5-min Rain = 0
KBI1 270751Z 17013KT 22/19 A2988 RMK A01 T02210194  RH  084%=      5-min Rain = 0
KBI1 270752Z 17017G22KT 22/19 A2988 RMK A01 T02200193  RH  085%=      5-min Rain = 0
KBI1 270753Z 17018G23KT 22/19 A2988 RMK A01 T02200194  RH  085%=      5-min Rain = 0
KBI1 270754Z 17020G25KT 22/19 A2988 RMK A01 T02200194  RH  085%=      5-min Rain = 0
KBI1 270755Z 17021KT 22/19 A2988 RMK A01 T02200193  RH  085%=      5-min Rain = 0
KBI1 270756Z 17018G23KT 22/19 A2988 RMK A01 T02210193  RH  084%=      5-min Rain = 0
KBI1 270757Z 17020KT 22/19 A2988 RMK A01 T02210193  RH  084%=      5-min Rain = 0
KBI1 270758Z 17020KT 22/19 A2988 RMK A01 T02210193  RH  084%=      5-min Rain = 0
KBI1 270759Z 17018KT 22/19 A2988 RMK A01 T02210193  RH  084%=      5-min Rain = 0
KBI1 270800Z 17017G23KT 22/19 A2988 RMK A01 T02210193  RH  084%=      5-min Rain = 0
KBI1 270801Z 17018KT 22/19 A2988 RMK A01 T02200193  RH  085%=      5-min Rain = 0
KBI1 270802Z 17016G21KT 22/19 A2988 RMK A01 T02200193  RH  085%=      5-min Rain = 0
KBI1 270803Z 17017KT 22/19 A2988 RMK A01 T02200193  RH  085%=      5-min Rain = 0
KBI1 270804Z 17020KT 22/19 A2988 RMK A01 T02190193  RH  085%=      5-min Rain = 0
KBI1 270805Z 17015KT 22/19 A2988 RMK A01 T02190193  RH  085%=      5-min Rain = 0
KBI1 270806Z 17014G19KT 22/19 A2988 RMK A01 T02190193  RH  085%=      5-min Rain = 0
KBI1 270807Z 17018KT 22/19 A2988 RMK A01 T02180193  RH  085%=      5-min Rain = 0
KBI1 270808Z 17016KT 22/19 A2988 RMK A01 T02190193  RH  085%=      5-min Rain = 0
KBI1 270809Z 18017KT 22/19 A2988 RMK A01 T02180193  RH  085%=      5-min Rain = 0
KBI1 270810Z 17016G22KT 22/19 A2988 RMK A01 T02180192  RH  086%=      5-min Rain = 0
KBI1 270811Z 17016G22KT 22/19 A2988 RMK A01 T02180193  RH  086%=      5-min Rain = 0
KBI1 270812Z 17018KT 22/19 A2988 RMK A01 T02170192  RH  086%=      5-min Rain = 0
KBI1 270813Z 17017G22KT 22/19 A2988 RMK A01 T02170192  RH  086%=      5-min Rain = 0
KBI1 270814Z 17018G25KT 22/19 A2988 RMK A01 T02170192  RH  086%=      5-min Rain = 0
KBI1 270815Z 16015G20KT 22/19 A2988 RMK A01 T02170192  RH  086%=      5-min Rain = 0
KBI1 270816Z 17019KT 22/19 A2988 RMK A01 T02180192  RH  086%=      5-min Rain = 0
KBI1 270817Z 17018KT 22/19 A2988 RMK A01 T02170192  RH  086%=      5-min Rain = 0
KBI1 270818Z 17016G24KT 22/19 A2988 RMK A01 T02170192  RH  086%=      5-min Rain = 0
KBI1 270819Z 17018G25KT 22/19 A2988 RMK A01 T02170192  RH  086%=      5-min Rain = 0
KBI1 270820Z 17019KT 22/19 A2988 RMK A01 T02170192  RH  085%=      5-min Rain = 0
KBI1 270821Z 17020KT 22/19 A2988 RMK A01 T02170192  RH  085%=      5-min Rain = 0
KBI1 270822Z 17018G23KT 22/19 A2988 RMK A01 T02170191  RH  085%=      5-min Rain = 0
KBI1 270823Z 17018G23KT 22/19 A2988 RMK A01 T02170191  RH  085%=      5-min Rain = 0
KBI1 270824Z 17016G23KT 22/19 A2988 RMK A01 T02170191  RH  085%=      5-min Rain = 0
KBI1 270825Z 17019KT 22/19 A2988 RMK A01 T02170191  RH  085%=      5-min Rain = 0
KBI1 270826Z 17017KT 22/19 A2988 RMK A01 T02160191  RH  085%=      5-min Rain = 0
KBI1 270827Z 17021G28KT 22/19 A2988 RMK A01 T02160191  RH  085%=      5-min Rain = 0
KBI1 270828Z 17017KT 22/19 A2988 RMK A01 T02160191  RH  085%=      5-min Rain = 0
KBI1 270829Z 17015KT 22/19 A2988 RMK A01 T02160191  RH  086%=      5-min Rain = 0
KBI1 270830Z 17018G23KT 22/19 A2988 RMK A01 T02160191  RH  086%=      5-min Rain = 0
KBI1 270831Z 17016KT 22/19 A2988 RMK A01 T02160191  RH  086%=      5-min Rain = 0
KBI1 270832Z 17019G25KT 22/19 A2988 RMK A01 T02160191  RH  086%=      5-min Rain = 0
KBI1 270833Z 17020KT 22/19 A2988 RMK A01 T02150190  RH  086%=      5-min Rain = 0
KBI1 270834Z 17022G28KT 22/19 A2988 RMK A01 T02150190  RH  086%=      5-min Rain = 0
KBI1 270835Z 17020G25KT 22/19 A2988 RMK A01 T02150190  RH  085%=      5-min Rain = 0
KBI1 270836Z 17021G26KT 22/19 A2988 RMK A01 T02160190  RH  085%=      5-min Rain = 0
KBI1 270837Z 17017G23KT 22/19 A2988 RMK A01 T02160190  RH  085%=      5-min Rain = 0
KBI1 270838Z 17019G24KT 22/19 A2988 RMK A01 T02150190  RH  086%=      5-min Rain = 0
KBI1 270839Z 17023KT 22/19 A2987 RMK A01 T02150190  RH  086%=      5-min Rain = 0
KBI1 270840Z 16019KT 22/19 A2988 RMK A01 T02150190  RH  086%=      5-min Rain = 0
KBI1 270841Z 17018G23KT 22/19 A2988 RMK A01 T02150190  RH  086%=      5-min Rain = 0
KBI1 270842Z 16016G23KT 22/19 A2987 RMK A01 T02150190  RH  086%=      5-min Rain = 0
KBI1 270843Z 17018G25KT 21/19 A2988 RMK A01 T02140190  RH  086%=      5-min Rain = 0
KBI1 270844Z 17017G26KT 21/19 A2988 RMK A01 T02140190  RH  086%=      5-min Rain = 0
KBI1 270845Z 17018G25KT 21/19 A2988 RMK A01 T02140190  RH  086%=      5-min Rain = 0
KBI1 270846Z 17021KT 21/19 A2987 RMK A01 T02140190  RH  086%=      5-min Rain = 0
KBI1 270847Z 17018G23KT 21/19 A2988 RMK A01 T02140190  RH  086%=      5-min Rain = 0
KBI1 270848Z 17017KT 21/19 A2988 RMK A01 T02140190  RH  086%=      5-min Rain = 0
KBI1 270849Z 17015KT 21/19 A2988 RMK A01 T02140189  RH  086%=      5-min Rain = 0
KBI1 270850Z 17014KT 21/19 A2988 RMK A01 T02130190  RH  086%=      5-min Rain = 0
KBI1 270851Z 17017G22KT 21/19 A2988 RMK A01 T02130189  RH  087%=      5-min Rain = 0
KBI1 270852Z 17017G23KT 21/19 A2988 RMK A01 T02130190  RH  087%=      5-min Rain = 0
KBI1 270853Z 17016G21KT 21/19 A2988 RMK A01 T02120189  RH  087%=      5-min Rain = 0
KBI1 270854Z 17018KT 21/19 A2988 RMK A01 T02120189  RH  087%=      5-min Rain = 0
KBI1 270855Z 17017KT 21/19 A2988 RMK A01 T02120189  RH  087%=      5-min Rain = 0
KBI1 270856Z 17018KT 21/19 A2988 RMK A01 T02120189  RH  087%=      5-min Rain = 0
KBI1 270857Z 17022KT 21/19 A2988 RMK A01 T02120189  RH  087%=      5-min Rain = 0
KBI1 270858Z 17016KT 21/19 A2988 RMK A01 T02120189  RH  086%=      5-min Rain = 0
KBI1 270859Z 17016G24KT 21/19 A2987 RMK A01 T02120189  RH  086%=      5-min Rain = 0
KBI1 270900Z 17018KT 21/19 A2987 RMK A01 T02130189  RH  086%=      5-min Rain = 0
KBI1 270901Z 16017G22KT 21/19 A2987 RMK A01 T02120189  RH  086%=      5-min Rain = 0
KBI1 270902Z 17019G25KT 21/19 A2987 RMK A01 T02120188  RH  086%=      5-min Rain = 0
KBI1 270903Z 16017KT 21/19 A2987 RMK A01 T02120188  RH  086%=      5-min Rain = 0
KBI1 270904Z 17018KT 21/19 A2987 RMK A01 T02120189  RH  086%=      5-min Rain = 0
KBI1 270905Z 17020KT 21/19 A2987 RMK A01 T02120188  RH  086%=      5-min Rain = 0
KBI1 270906Z 17017G23KT 21/19 A2987 RMK A01 T02120189  RH  087%=      5-min Rain = 0
KBI1 270907Z 17016G21KT 21/19 A2987 RMK A01 T02110188  RH  087%=      5-min Rain = 0
KBI1 270908Z 17015KT 21/19 A2987 RMK A01 T02110188  RH  087%=      5-min Rain = 0
KBI1 270909Z 17016KT 21/19 A2987 RMK A01 T02100188  RH  087%=      5-min Rain = 0
KBI1 270910Z 17014G19KT 21/19 A2988 RMK A01 T02100188  RH  087%=      5-min Rain = 0
KBI1 270911Z 17016G21KT 21/19 A2988 RMK A01 T02100188  RH  087%=      5-min Rain = 0
KBI1 270912Z 17017G22KT 21/19 A2988 RMK A01 T02100188  RH  087%=      5-min Rain = 0
KBI1 270913Z 17018KT 21/19 A2988 RMK A01 T02100188  RH  087%=      5-min Rain = 0
KBI1 270914Z 17013G18KT 21/19 A2988 RMK A01 T02100188  RH  087%=      5-min Rain = 0
KBI1 270915Z 17016G22KT 21/19 A2988 RMK A01 T02100188  RH  087%=      5-min Rain = 0
KBI1 270916Z 17019G25KT 21/19 A2988 RMK A01 T02090188  RH  088%=      5-min Rain = 0
KBI1 270917Z 17015KT 21/19 A2988 RMK A01 T02090188  RH  087%=      5-min Rain = 0
KBI1 270918Z 17014G19KT 21/19 A2988 RMK A01 T02090188  RH  087%=      5-min Rain = 0
KBI1 270919Z 17013KT 21/19 A2988 RMK A01 T02090188  RH  088%=      5-min Rain = 0
KBI1 270920Z 17017KT 21/19 A2988 RMK A01 T02090188  RH  088%=      5-min Rain = 0
KBI1 270921Z 17015KT 21/19 A2988 RMK A01 T02080187  RH  088%=      5-min Rain = 0
KBI1 270922Z 17014G20KT 21/19 A2988 RMK A01 T02090188  RH  088%=      5-min Rain = 0
KBI1 270923Z 17019KT 21/19 A2988 RMK A01 T02080187  RH  088%=      5-min Rain = 0
KBI1 270924Z 17018KT 21/19 A2988 RMK A01 T02080188  RH  088%=      5-min Rain = 0
KBI1 270925Z 17017G22KT 21/19 A2988 RMK A01 T02080187  RH  088%=      5-min Rain = 0
KBI1 270926Z 17016G21KT 21/19 A2988 RMK A01 T02080187  RH  088%=      5-min Rain = 0
KBI1 270927Z 17018G23KT 21/19 A2988 RMK A01 T02080187  RH  088%=      5-min Rain = 0
KBI1 270928Z 17015G20KT 21/19 A2988 RMK A01 T02080187  RH  088%=      5-min Rain = 0
KBI1 270929Z 17015G20KT 21/19 A2988 RMK A01 T02080187  RH  088%=      5-min Rain = 0
KBI1 270930Z 16017KT 21/19 A2988 RMK A01 T02080187  RH  088%=      5-min Rain = 0
KBI1 270931Z 17019G25KT 21/19 A2988 RMK A01 T02080187  RH  088%=      5-min Rain = 0
KBI1 270932Z 17016KT 21/19 A2988 RMK A01 T02080187  RH  088%=      5-min Rain = 0
KBI1 270933Z 16014G19KT 21/19 A2988 RMK A01 T02080187  RH  088%=      5-min Rain = 0
KBI1 270934Z 17015G20KT 21/19 A2988 RMK A01 T02080187  RH  088%=      5-min Rain = 0
KBI1 270935Z 17015KT 21/19 A2988 RMK A01 T02070187  RH  088%=      5-min Rain = 0
KBI1 270936Z 17017G22KT 21/19 A2988 RMK A01 T02080187  RH  088%=      5-min Rain = 0
KBI1 270937Z 17020G25KT 21/19 A2987 RMK A01 T02070187  RH  088%=      5-min Rain = 0
KBI1 270938Z 17016G21KT 21/19 A2987 RMK A01 T02070187  RH  088%=      5-min Rain = 0
KBI1 270939Z 17014G20KT 21/19 A2988 RMK A01 T02070187  RH  088%=      5-min Rain = 0
KBI1 270940Z 17014KT 21/19 A2988 RMK A01 T02070187  RH  088%=      5-min Rain = 0
KBI1 270941Z 17017G24KT 21/19 A2988 RMK A01 T02070187  RH  088%=      5-min Rain = 0
KBI1 270942Z 17016G21KT 21/19 A2988 RMK A01 T02060187  RH  088%=      5-min Rain = 0
KBI1 270943Z 17020G25KT 21/19 A2988 RMK A01 T02060187  RH  088%=      5-min Rain = 0
KBI1 270944Z 17018KT 21/19 A2988 RMK A01 T02060186  RH  088%=      5-min Rain = 0
KBI1 270945Z 17019G24KT 21/19 A2988 RMK A01 T02070187  RH  088%=      5-min Rain = 0
KBI1 270946Z 17016KT 21/19 A2988 RMK A01 T02070187  RH  088%=      5-min Rain = 0
KBI1 270947Z 17012KT 21/19 A2988 RMK A01 T02070186  RH  088%=      5-min Rain = 0
KBI1 270948Z 17018G23KT 21/19 A2988 RMK A01 T02060186  RH  088%=      5-min Rain = 0
KBI1 270949Z 17017G23KT 21/19 A2988 RMK A01 T02060186  RH  088%=      5-min Rain = 0
KBI1 270950Z 17013G18KT 21/19 A2988 RMK A01 T02060186  RH  088%=      5-min Rain = 0
KBI1 270951Z 17015G20KT 21/19 A2988 RMK A01 T02060186  RH  088%=      5-min Rain = 0
KBI1 270952Z 17014KT 21/19 A2988 RMK A01 T02060186  RH  089%=      5-min Rain = 0
KBI1 270953Z 17013G18KT 21/19 A2988 RMK A01 T02050186  RH  089%=      5-min Rain = 0
KBI1 270954Z 17015KT 21/19 A2988 RMK A01 T02050186  RH  089%=      5-min Rain = 0
KBI1 270955Z 17013G18KT 21/19 A2988 RMK A01 T02050186  RH  089%=      5-min Rain = 0
KBI1 270956Z 17014KT 21/19 A2988 RMK A01 T02050186  RH  089%=      5-min Rain = 0
KBI1 270957Z 17014KT 21/19 A2988 RMK A01 T02050186  RH  089%=      5-min Rain = 0
KBI1 270958Z 17015G21KT 21/19 A2988 RMK A01 T02050186  RH  089%=      5-min Rain = 0
KBI1 270959Z 17014KT 21/19 A2988 RMK A01 T02050186  RH  089%=      5-min Rain = 0
KBI1 271000Z 18013KT 21/19 A2988 RMK A01 T02050186  RH  089%=      5-min Rain = 0
KBI1 271001Z 17012KT 21/19 A2989 RMK A01 T02050186  RH  089%=      5-min Rain = 0
KBI1 271002Z 18013G19KT 20/19 A2989 RMK A01 T02040185  RH  089%=      5-min Rain = 0
KBI1 271003Z 17010G16KT 20/19 A2989 RMK A01 T02040186  RH  089%=      5-min Rain = 0
KBI1 271004Z 17015KT 20/19 A2989 RMK A01 T02040186  RH  089%=      5-min Rain = 0
KBI1 271005Z 17014KT 20/19 A2989 RMK A01 T02040186  RH  089%=      5-min Rain = 0
KBI1 271006Z 17012KT 20/19 A2989 RMK A01 T02040186  RH  089%=      5-min Rain = 0
KBI1 271007Z 17013KT 20/19 A2989 RMK A01 T02040185  RH  089%=      5-min Rain = 0
KBI1 271008Z 17012KT 20/19 A2989 RMK A01 T02040185  RH  089%=      5-min Rain = 0
KBI1 271009Z 17015G21KT 20/19 A2989 RMK A01 T02040185  RH  089%=      5-min Rain = 0
KBI1 271010Z 17014KT 20/19 A2989 RMK A01 T02040185  RH  089%=      5-min Rain = 0
KBI1 271011Z 17014KT 20/19 A2989 RMK A01 T02040185  RH  089%=      5-min Rain = 0
KBI1 271012Z 17014KT 21/19 A2989 RMK A01 T02050185  RH  089%=      5-min Rain = 0
KBI1 271013Z 17012KT 21/19 A2989 RMK A01 T02050185  RH  089%=      5-min Rain = 0
KBI1 271014Z 18013KT 20/19 A2989 RMK A01 T02040185  RH  089%=      5-min Rain = 0
KBI1 271015Z 17010KT 20/19 A2989 RMK A01 T02040185  RH  089%=      5-min Rain = 0
KBI1 271016Z 18012KT 20/19 A299 RMK A01 T02040185  RH  089%=      5-min Rain = 0
KBI1 271017Z 17010KT 20/19 A299 RMK A01 T02040185  RH  089%=      5-min Rain = 0
KBI1 271018Z 18010KT 20/19 A299 RMK A01 T02030185  RH  089%=      5-min Rain = 0
KBI1 271019Z 19008KT 20/19 A299 RMK A01 T02030185  RH  089%=      5-min Rain = 0
KBI1 271020Z 19011KT 20/19 A299 RMK A01 T02040185  RH  089%=      5-min Rain = 0
KBI1 271021Z 19008KT 20/19 A2991 RMK A01 T02030185  RH  089%=      5-min Rain = 0
KBI1 271022Z 19011KT 20/19 A2991 RMK A01 T02030185  RH  089%=      5-min Rain = 0
KBI1 271023Z 19010KT 20/19 A2991 RMK A01 T02030185  RH  089%=      5-min Rain = 0
KBI1 271024Z 18013KT 20/19 A2991 RMK A01 T02040185  RH  089%=      5-min Rain = 0
KBI1 271025Z 18014KT 20/19 A299 RMK A01 T02040185  RH  089%=      5-min Rain = 0
KBI1 271026Z 17014KT 20/19 A299 RMK A01 T02040185  RH  089%=      5-min Rain = 0
KBI1 271027Z 18014KT 20/19 A299 RMK A01 T02040185  RH  089%=      5-min Rain = 0
KBI1 271028Z 17015KT 20/19 A299 RMK A01 T02040185  RH  089%=      5-min Rain = 0
KBI1 271029Z 17016KT 20/18 A299 RMK A01 T02040184  RH  089%=      5-min Rain = 0
KBI1 271030Z 17017G23KT 20/18 A299 RMK A01 T02040184  RH  089%=      5-min Rain = 0
KBI1 271031Z 16011G19KT 20/18 A299 RMK A01 T02040184  RH  088%=      5-min Rain = 0
KBI1 271032Z 16011KT 20/18 A299 RMK A01 T02040184  RH  089%=      5-min Rain = 0
KBI1 271033Z 17012G18KT 20/18 A299 RMK A01 T02030184  RH  089%=      5-min Rain = 0
KBI1 271034Z 17012KT 20/18 A299 RMK A01 T02030184  RH  089%=      5-min Rain = 0
KBI1 271035Z 17013KT 20/19 A299 RMK A01 T02030185  RH  089%=      5-min Rain = 0
KBI1 271036Z 17012KT 20/18 A2991 RMK A01 T02030184  RH  089%=      5-min Rain = 0
KBI1 271037Z 17010G15KT 20/18 A2991 RMK A01 T02030184  RH  089%=      5-min Rain = 0
KBI1 271038Z 18009KT 20/18 A2991 RMK A01 T02030184  RH  089%=      5-min Rain = 0
KBI1 271039Z 18008KT 20/18 A2991 RMK A01 T02030184  RH  089%=      5-min Rain = 0
KBI1 271040Z 18009KT 20/18 A2992 RMK A01 T02030184  RH  089%=      5-min Rain = 0
KBI1 271041Z 19008KT 20/18 A2992 RMK A01 T02030184  RH  089%=      5-min Rain = 0
KBI1 271042Z 18008KT 20/18 A2992 RMK A01 T02030184  RH  089%=      5-min Rain = 0
KBI1 271043Z 18009KT 20/18 A2992 RMK A01 T02030184  RH  089%=      5-min Rain = 0
KBI1 271044Z 19010G15KT 20/18 A2992 RMK A01 T02040184  RH  088%=      5-min Rain = 0
KBI1 271045Z 18011KT 20/18 A2992 RMK A01 T02040184  RH  088%=      5-min Rain = 0
KBI1 271046Z 19009KT 20/18 A2992 RMK A01 T02040183  RH  088%=      5-min Rain = 0
KBI1 271047Z 19007KT 20/18 A2992 RMK A01 T02040184  RH  088%=      5-min Rain = 0
KBI1 271048Z 18008KT 20/18 A2992 RMK A01 T02040184  RH  088%=      5-min Rain = 0
KBI1 271049Z 17009KT 20/18 A2992 RMK A01 T02040184  RH  088%=      5-min Rain = 0
KBI1 271050Z 17010KT 20/18 A2992 RMK A01 T02040184  RH  088%=      5-min Rain = 0
KBI1 271051Z 16009KT 20/18 A2992 RMK A01 T02040183  RH  088%=      5-min Rain = 0
KBI1 271052Z 18010KT 20/18 A2992 RMK A01 T02040183  RH  088%=      5-min Rain = 0
KBI1 271053Z 18007KT 20/18 A2992 RMK A01 T02040183  RH  088%=      5-min Rain = 0
KBI1 271054Z 17006KT 20/18 A2992 RMK A01 T02040183  RH  088%=      5-min Rain = 0
KBI1 271055Z 17006KT 20/18 A2992 RMK A01 T02040184  RH  088%=      5-min Rain = 0
KBI1 271056Z 18007KT 20/18 A2993 RMK A01 T02040184  RH  088%=      5-min Rain = 0
KBI1 271057Z 18007KT 20/18 A2993 RMK A01 T02040184  RH  088%=      5-min Rain = 0
KBI1 271058Z 17007KT 20/18 A2993 RMK A01 T02040184  RH  088%=      5-min Rain = 0
KBI1 271059Z 18005KT 20/18 A2993 RMK A01 T02040184  RH  088%=      5-min Rain = 0
KBI1 271100Z 17007KT 20/18 A2993 RMK A01 T02040184  RH  088%=      5-min Rain = 0
KBI1 271101Z 18009KT 20/18 A2993 RMK A01 T02040184  RH  088%=      5-min Rain = 0
KBI1 271102Z 17010KT 20/18 A2993 RMK A01 T02040184  RH  088%=      5-min Rain = 0
KBI1 271103Z 18009KT 20/18 A2993 RMK A01 T02040184  RH  088%=      5-min Rain = 0
KBI1 271104Z 18009KT 20/18 A2993 RMK A01 T02040184  RH  088%=      5-min Rain = 0
KBI1 271105Z 17009KT 20/18 A2993 RMK A01 T02040183  RH  088%=      5-min Rain = 0
KBI1 271106Z 18009KT 20/18 A2993 RMK A01 T02040184  RH  088%=      5-min Rain = 0
KBI1 271107Z 17011KT 20/18 A2993 RMK A01 T02040183  RH  088%=      5-min Rain = 0
KBI1 271108Z 17008KT 20/18 A2992 RMK A01 T02040183  RH  088%=      5-min Rain = 0
KBI1 271109Z 17012G17KT 20/18 A2992 RMK A01 T02040183  RH  088%=      5-min Rain = 0
KBI1 271110Z 17014KT 20/18 A2992 RMK A01 T02040183  RH  088%=      5-min Rain = 0
KBI1 271111Z 17013KT 20/18 A2992 RMK A01 T02040183  RH  088%=      5-min Rain = 0
KBI1 271112Z 17012KT 20/18 A2992 RMK A01 T02040183  RH  087%=      5-min Rain = 0
KBI1 271113Z 17012KT 20/18 A2992 RMK A01 T02040183  RH  087%=      5-min Rain = 0
KBI1 271114Z 18013KT 20/18 A2992 RMK A01 T02040183  RH  088%=      5-min Rain = 0
KBI1 271115Z 17011KT 20/18 A2992 RMK A01 T02040183  RH  088%=      5-min Rain = 0
KBI1 271116Z 17011KT 20/18 A2992 RMK A01 T02040183  RH  088%=      5-min Rain = 0
KBI1 271117Z 17011KT 20/18 A2992 RMK A01 T02040183  RH  088%=      5-min Rain = 0
KBI1 271118Z 17010KT 20/18 A2992 RMK A01 T02040182  RH  087%=      5-min Rain = 0
KBI1 271119Z 17010KT 20/18 A2992 RMK A01 T02040183  RH  088%=      5-min Rain = 0
KBI1 271120Z 17008G13KT 20/18 A2992 RMK A01 T02040183  RH  088%=      5-min Rain = 0
KBI1 271121Z 18008KT 20/18 A2992 RMK A01 T02040183  RH  088%=      5-min Rain = 0
KBI1 271122Z 19008KT 20/18 A2992 RMK A01 T02040183  RH  088%=      5-min Rain = 0
KBI1 271123Z 19008KT 20/18 A2993 RMK A01 T02040183  RH  088%=      5-min Rain = 0
KBI1 271124Z 18007KT 20/18 A2993 RMK A01 T02040183  RH  088%=      5-min Rain = 0
KBI1 271125Z 18007KT 20/18 A2993 RMK A01 T02040183  RH  088%=      5-min Rain = 0
KBI1 271126Z 19008KT 20/18 A2993 RMK A01 T02040183  RH  088%=      5-min Rain = 0
KBI1 271127Z 17005KT 20/18 A2993 RMK A01 T02040183  RH  088%=      5-min Rain = 0
KBI1 271128Z 18007KT 20/18 A2993 RMK A01 T02040183  RH  088%=      5-min Rain = 0
KBI1 271129Z 17009KT 20/18 A2993 RMK A01 T02040183  RH  087%=      5-min Rain = 0
KBI1 271130Z 18008KT 20/18 A2993 RMK A01 T02040182  RH  087%=      5-min Rain = 0
KBI1 271131Z 18008KT 20/18 A2993 RMK A01 T02040182  RH  087%=      5-min Rain = 0
KBI1 271132Z 17008KT 20/18 A2993 RMK A01 T02040182  RH  087%=      5-min Rain = 0
KBI1 271133Z 17010KT 20/18 A2993 RMK A01 T02040182  RH  087%=      5-min Rain = 0
KBI1 271134Z 18011KT 20/18 A2993 RMK A01 T02040182  RH  087%=      5-min Rain = 0
KBI1 271135Z 17009KT 20/18 A2993 RMK A01 T02040182  RH  087%=      5-min Rain = 0
KBI1 271136Z 17009KT 20/18 A2993 RMK A01 T02040183  RH  087%=      5-min Rain = 0
KBI1 271137Z 16008KT 20/18 A2993 RMK A01 T02040183  RH  087%=      5-min Rain = 0
KBI1 271138Z 17009KT 20/18 A2993 RMK A01 T02040182  RH  087%=      5-min Rain = 0
KBI1 271139Z 17011KT 20/18 A2993 RMK A01 T02040182  RH  087%=      5-min Rain = 0
KBI1 271140Z 16010KT 20/18 A2993 RMK A01 T02040182  RH  087%=      5-min Rain = 0
KBI1 271141Z 17011KT 20/18 A2993 RMK A01 T02040182  RH  087%=      5-min Rain = 0
KBI1 271142Z 17011KT 20/18 A2992 RMK A01 T02040182  RH  087%=      5-min Rain = 0
KBI1 271143Z 16011KT 20/18 A2992 RMK A01 T02040182  RH  087%=      5-min Rain = 0
KBI1 271144Z 16010KT 20/18 A2993 RMK A01 T02040182  RH  087%=      5-min Rain = 0
KBI1 271145Z 17011KT 20/18 A2993 RMK A01 T02040182  RH  087%=      5-min Rain = 0
KBI1 271146Z 17010KT 20/18 A2993 RMK A01 T02040182  RH  087%=      5-min Rain = 0
KBI1 271147Z 17008KT 20/18 A2993 RMK A01 T02030181  RH  087%=      5-min Rain = 0
KBI1 271148Z 17011G16KT 20/18 A2993 RMK A01 T02040182  RH  087%=      5-min Rain = 0
KBI1 271149Z 17010KT 20/18 A2993 RMK A01 T02040182  RH  087%=      5-min Rain = 0
KBI1 271150Z 16008KT 20/18 A2993 RMK A01 T02040182  RH  087%=      5-min Rain = 0
KBI1 271151Z 17011KT 20/18 A2993 RMK A01 T02030182  RH  087%=      5-min Rain = 0
KBI1 271152Z 18012G17KT 20/18 A2993 RMK A01 T02040182  RH  087%=      5-min Rain = 0
KBI1 271153Z 18014KT 20/18 A2993 RMK A01 T02040182  RH  087%=      5-min Rain = 0
KBI1 271154Z 18012KT 20/18 A2993 RMK A01 T02040182  RH  087%=      5-min Rain = 0
KBI1 271155Z 17013KT 20/18 A2993 RMK A01 T02030182  RH  087%=      5-min Rain = 0
KBI1 271156Z 17010KT 20/18 A2993 RMK A01 T02030182  RH  087%=      5-min Rain = 0
KBI1 271157Z 18007KT 20/18 A2993 RMK A01 T02030182  RH  087%=      5-min Rain = 0
KBI1 271158Z 18009KT 20/18 A2994 RMK A01 T02030182  RH  088%=      5-min Rain = 0
KBI1 271159Z 18011KT 20/18 A2994 RMK A01 T02030182  RH  088%=      5-min Rain = 0
KBI1 271200Z 17014G19KT 20/18 A2993 RMK A01 T02030182  RH  088%=      5-min Rain = 0
KBI1 271201Z 18015KT 20/18 A2993 RMK A01 T02040182  RH  087%=      5-min Rain = 0
KBI1 271202Z 18015KT 20/18 A2993 RMK A01 T02030182  RH  087%=      5-min Rain = 0
KBI1 271203Z 18014KT 20/18 A2993 RMK A01 T02030182  RH  087%=      5-min Rain = 0
KBI1 271204Z 18014KT 20/18 A2993 RMK A01 T02030182  RH  087%=      5-min Rain = 0
KBI1 271205Z 18012G17KT 20/18 A2993 RMK A01 T02030182  RH  087%=      5-min Rain = 0
KBI1 271206Z 18014KT 20/18 A2993 RMK A01 T02030182  RH  088%=      5-min Rain = 0
KBI1 271207Z 18014KT 20/18 A2993 RMK A01 T02030182  RH  088%=      5-min Rain = 0
KBI1 271208Z 17015KT 20/18 A2993 RMK A01 T02030182  RH  088%=      5-min Rain = 0
KBI1 271209Z 18014KT 20/18 A2993 RMK A01 T02030182  RH  088%=      5-min Rain = 0
KBI1 271210Z 18011KT 20/18 A2993 RMK A01 T02030182  RH  088%=      5-min Rain = 0
KBI1 271211Z 18012G19KT 20/18 A2993 RMK A01 T02030182  RH  088%=      5-min Rain = 0
KBI1 271212Z 18015KT 20/18 A2993 RMK A01 T02030182  RH  088%=      5-min Rain = 0
KBI1 271213Z 18013KT 20/18 A2993 RMK A01 T02030182  RH  088%=      5-min Rain = 0
KBI1 271214Z 18015KT 20/18 A2993 RMK A01 T02030182  RH  088%=      5-min Rain = 0
KBI1 271215Z 18012KT 20/18 A2993 RMK A01 T02030182  RH  088%=      5-min Rain = 0
KBI1 271216Z 18012KT 20/18 A2993 RMK A01 T02030182  RH  088%=      5-min Rain = 0
KBI1 271217Z 18013KT 20/18 A2993 RMK A01 T02030182  RH  088%=      5-min Rain = 0
KBI1 271218Z 17012G17KT 20/18 A2993 RMK A01 T02030183  RH  088%=      5-min Rain = 0
KBI1 271219Z 17012KT 20/18 A2993 RMK A01 T02030182  RH  088%=      5-min Rain = 0
KBI1 271220Z 17012KT 20/18 A2993 RMK A01 T02030182  RH  088%=      5-min Rain = 0
KBI1 271221Z 18014KT 20/18 A2993 RMK A01 T02030182  RH  088%=      5-min Rain = 0
KBI1 271222Z 17014KT 20/18 A2993 RMK A01 T02030182  RH  088%=      5-min Rain = 0
KBI1 271223Z 17014KT 20/18 A2993 RMK A01 T02030182  RH  088%=      5-min Rain = 0
KBI1 271224Z 18013KT 20/18 A2993 RMK A01 T02030182  RH  088%=      5-min Rain = 0
KBI1 271225Z 17010KT 20/18 A2993 RMK A01 T02030182  RH  088%=      5-min Rain = 0
KBI1 271226Z 17011KT 20/18 A2993 RMK A01 T02030182  RH  088%=      5-min Rain = 0
KBI1 271227Z 17013KT 20/18 A2993 RMK A01 T02030182  RH  088%=      5-min Rain = 0
KBI1 271228Z 17013KT 20/18 A2993 RMK A01 T02030182  RH  088%=      5-min Rain = 0
KBI1 271229Z 17011KT 20/18 A2993 RMK A01 T02030182  RH  088%=      5-min Rain = 0
KBI1 271230Z 18014KT 20/18 A2993 RMK A01 T02030182  RH  088%=      5-min Rain = 0
KBI1 271231Z 17011KT 20/18 A2993 RMK A01 T02030182  RH  088%=      5-min Rain = 0
KBI1 271232Z 18013KT 20/18 A2993 RMK A01 T02030182  RH  088%=      5-min Rain = 0
KBI1 271233Z 17011KT 20/18 A2993 RMK A01 T02030182  RH  088%=      5-min Rain = 0
KBI1 271234Z 17010KT 20/18 A2993 RMK A01 T02030182  RH  088%=      5-min Rain = 0
KBI1 271235Z 18011KT 20/18 A2993 RMK A01 T02030182  RH  088%=      5-min Rain = 0
KBI1 271236Z 17012KT 20/18 A2993 RMK A01 T02030182  RH  088%=      5-min Rain = 0
KBI1 271237Z 18011KT 20/18 A2993 RMK A01 T02030182  RH  088%=      5-min Rain = 0
KBI1 271238Z 18011KT 20/18 A2994 RMK A01 T02030182  RH  088%=      5-min Rain = 0
KBI1 271239Z 17010G16KT 20/18 A2994 RMK A01 T02030182  RH  088%=      5-min Rain = 0
KBI1 271240Z 17015KT 20/18 A2993 RMK A01 T02030182  RH  088%=      5-min Rain = 0
KBI1 271241Z 17013KT 20/18 A2994 RMK A01 T02030182  RH  088%=      5-min Rain = 0
KBI1 271242Z 18012KT 20/18 A2993 RMK A01 T02030182  RH  088%=      5-min Rain = 0
KBI1 271243Z 17013KT 20/18 A2993 RMK A01 T02030182  RH  088%=      5-min Rain = 0
KBI1 271244Z 17012G17KT 20/18 A2993 RMK A01 T02030182  RH  088%=      5-min Rain = 0
KBI1 271245Z 18015KT 20/18 A2993 RMK A01 T02030182  RH  088%=      5-min Rain = 0
KBI1 271246Z 18014KT 20/18 A2993 RMK A01 T02030182  RH  088%=      5-min Rain = 0
KBI1 271247Z 17013KT 20/18 A2993 RMK A01 T02030182  RH  088%=      5-min Rain = 0
KBI1 271248Z 18014KT 20/18 A2993 RMK A01 T02030182  RH  088%=      5-min Rain = 0
KBI1 271249Z 17015G21KT 20/18 A2993 RMK A01 T02030183  RH  088%=      5-min Rain = 0
KBI1 271250Z 18016KT 20/18 A2993 RMK A01 T02030182  RH  088%=      5-min Rain = 0
KBI1 271251Z 17016KT 20/18 A2993 RMK A01 T02030182  RH  088%=      5-min Rain = 0
KBI1 271252Z 17015KT 20/18 A2993 RMK A01 T02030182  RH  088%=      5-min Rain = 0
KBI1 271253Z 18014KT 20/18 A2993 RMK A01 T02030182  RH  088%=      5-min Rain = 0
KBI1 271254Z 17016KT 20/18 A2993 RMK A01 T02040183  RH  088%=      5-min Rain = 0
KBI1 271255Z 18016KT 20/18 A2993 RMK A01 T02040182  RH  088%=      5-min Rain = 0
KBI1 271256Z 18014KT 20/18 A2993 RMK A01 T02030182  RH  088%=      5-min Rain = 0
KBI1 271257Z 17013KT 20/18 A2993 RMK A01 T02040183  RH  088%=      5-min Rain = 0
KBI1 271258Z 17016KT 20/18 A2993 RMK A01 T02040183  RH  088%=      5-min Rain = 0
KBI1 271259Z 17013KT 20/18 A2993 RMK A01 T02040182  RH  088%=      5-min Rain = 0
KBI1 271300Z 18012KT 20/18 A2993 RMK A01 T02040183  RH  088%=      5-min Rain = 0
KBI1 271301Z 17013G18KT 20/18 A2993 RMK A01 T02040183  RH  088%=      5-min Rain = 0
KBI1 271302Z 18014KT 20/18 A2993 RMK A01 T02030183  RH  088%=      5-min Rain = 0
KBI1 271303Z 17014KT 20/18 A2993 RMK A01 T02040183  RH  088%=      5-min Rain = 0
KBI1 271304Z 18014KT 20/18 A2993 RMK A01 T02040183  RH  088%=      5-min Rain = 0
KBI1 271305Z 18013KT 20/18 A2993 RMK A01 T02040183  RH  088%=      5-min Rain = 0
KBI1 271306Z 18017KT 21/18 A2993 RMK A01 T02050183  RH  088%=      5-min Rain = 0
KBI1 271307Z 17015G20KT 20/18 A2993 RMK A01 T02040183  RH  088%=      5-min Rain = 0
KBI1 271308Z 18014KT 20/18 A2993 RMK A01 T02040183  RH  088%=      5-min Rain = 0
KBI1 271309Z 18014KT 20/18 A2993 RMK A01 T02040183  RH  088%=      5-min Rain = 0
KBI1 271310Z 18015KT 20/18 A2993 RMK A01 T02040183  RH  088%=      5-min Rain = 0
KBI1 271311Z 17014KT 20/18 A2993 RMK A01 T02040183  RH  088%=      5-min Rain = 0
KBI1 271312Z 18013G18KT 21/18 A2993 RMK A01 T02050183  RH  088%=      5-min Rain = 0
KBI1 271313Z 18014KT 20/18 A2993 RMK A01 T02040183  RH  088%=      5-min Rain = 0
KBI1 271314Z 17014KT 21/18 A2993 RMK A01 T02050183  RH  087%=      5-min Rain = 0
KBI1 271315Z 17012KT 21/18 A2993 RMK A01 T02050183  RH  087%=      5-min Rain = 0
KBI1 271316Z 17011KT 21/18 A2993 RMK A01 T02050184  RH  088%=      5-min Rain = 0
KBI1 271317Z 17011KT 21/18 A2993 RMK A01 T02050184  RH  088%=      5-min Rain = 0
KBI1 271318Z 17011KT 21/18 A2993 RMK A01 T02050184  RH  088%=      5-min Rain = 0
KBI1 271319Z 17010KT 21/18 A2993 RMK A01 T02050184  RH  088%=      5-min Rain = 0
KBI1 271320Z 17012KT 21/18 A2993 RMK A01 T02060184  RH  088%=      5-min Rain = 0
KBI1 271321Z 17012KT 21/18 A2993 RMK A01 T02060184  RH  087%=      5-min Rain = 0
KBI1 271322Z 17014KT 21/18 A2993 RMK A01 T02060184  RH  087%=      5-min Rain = 0
KBI1 271323Z 17012KT 21/18 A2993 RMK A01 T02060184  RH  087%=      5-min Rain = 0
KBI1 271324Z 17015KT 21/18 A2993 RMK A01 T02060184  RH  087%=      5-min Rain = 0
KBI1 271325Z 17014KT 21/18 A2993 RMK A01 T02050183  RH  087%=      5-min Rain = 0
KBI1 271326Z 17014KT 21/18 A2993 RMK A01 T02050183  RH  087%=      5-min Rain = 0
KBI1 271327Z 17013KT 21/18 A2993 RMK A01 T02060183  RH  087%=      5-min Rain = 0
KBI1 271328Z 16014KT 21/18 A2993 RMK A01 T02060183  RH  087%=      5-min Rain = 0
KBI1 271329Z 17015G20KT 21/18 A2993 RMK A01 T02060183  RH  087%=      5-min Rain = 0
KBI1 271330Z 17017KT 21/18 A2993 RMK A01 T02060183  RH  087%=      5-min Rain = 0
KBI1 271331Z 16013KT 21/18 A2993 RMK A01 T02060183  RH  087%=      5-min Rain = 0
KBI1 271332Z 17015KT 21/18 A2993 RMK A01 T02060184  RH  087%=      5-min Rain = 0
KBI1 271333Z 17014KT 21/18 A2993 RMK A01 T02060184  RH  087%=      5-min Rain = 0
KBI1 271334Z 17013KT 21/18 A2994 RMK A01 T02070184  RH  087%=      5-min Rain = 0
KBI1 271335Z 17015KT 21/18 A2994 RMK A01 T02070184  RH  087%=      5-min Rain = 0
KBI1 271336Z 17014KT 21/18 A2993 RMK A01 T02070184  RH  087%=      5-min Rain = 0
KBI1 271337Z 18013G18KT 21/18 A2993 RMK A01 T02070184  RH  087%=      5-min Rain = 0
KBI1 271338Z 17013KT 21/18 A2993 RMK A01 T02070184  RH  087%=      5-min Rain = 0
KBI1 271339Z 17015KT 21/18 A2993 RMK A01 T02070184  RH  087%=      5-min Rain = 0
KBI1 271340Z 17011KT 21/18 A2993 RMK A01 T02070184  RH  087%=      5-min Rain = 0
KBI1 271341Z 17010KT 21/19 A2994 RMK A01 T02080185  RH  087%=      5-min Rain = 0
KBI1 271342Z 16012KT 21/19 A2993 RMK A01 T02080185  RH  086%=      5-min Rain = 0
KBI1 271343Z 16011KT 21/19 A2993 RMK A01 T02080185  RH  086%=      5-min Rain = 0
KBI1 271344Z 17014KT 21/19 A2993 RMK A01 T02090185  RH  086%=      5-min Rain = 0
KBI1 271345Z 17012KT 21/18 A2993 RMK A01 T02090184  RH  086%=      5-min Rain = 0
KBI1 271346Z 17011KT 21/19 A2994 RMK A01 T02090186  RH  086%=      5-min Rain = 0
KBI1 271347Z 17013KT 21/19 A2994 RMK A01 T02090185  RH  086%=      5-min Rain = 0
KBI1 271348Z 17012KT 21/19 A2994 RMK A01 T02090185  RH  086%=      5-min Rain = 0
KBI1 271349Z 18011KT 21/19 A2994 RMK A01 T02090185  RH  086%=      5-min Rain = 0
KBI1 271350Z 17011KT 21/19 A2994 RMK A01 T02090186  RH  086%=      5-min Rain = 0
KBI1 271351Z 17011KT 21/19 A2994 RMK A01 T02090185  RH  086%=      5-min Rain = 0
KBI1 271352Z 17010KT 21/19 A2994 RMK A01 T02100186  RH  086%=      5-min Rain = 0
KBI1 271353Z 18012KT 21/19 A2994 RMK A01 T02100185  RH  086%=      5-min Rain = 0
KBI1 271354Z 17013KT 21/19 A2994 RMK A01 T02100185  RH  085%=      5-min Rain = 0
KBI1 271355Z 17014KT 21/19 A2994 RMK A01 T02100185  RH  085%=      5-min Rain = 0
KBI1 271356Z 17013KT 21/19 A2994 RMK A01 T02100185  RH  085%=      5-min Rain = 0
KBI1 271357Z 17014KT 21/19 A2994 RMK A01 T02100185  RH  085%=      5-min Rain = 0
KBI1 271358Z 18011KT 21/19 A2994 RMK A01 T02100185  RH  085%=      5-min Rain = 0
KBI1 271359Z 18010KT 21/19 A2994 RMK A01 T02110186  RH  085%=      5-min Rain = 0
KBI1 271400Z 17012KT 21/19 A2994 RMK A01 T02120186  RH  085%=      5-min Rain = 0
KBI1 271401Z 18011KT 21/19 A2994 RMK A01 T02130186  RH  085%=      5-min Rain = 0
KBI1 271402Z 18011KT 21/19 A2994 RMK A01 T02130186  RH  084%=      5-min Rain = 0
KBI1 271403Z 17011KT 21/19 A2994 RMK A01 T02130186  RH  085%=      5-min Rain = 0
KBI1 271404Z 17013KT 21/19 A2993 RMK A01 T02140186  RH  084%=      5-min Rain = 0
KBI1 271405Z 17015KT 21/19 A2993 RMK A01 T02140185  RH  083%=      5-min Rain = 0
KBI1 271406Z 17014KT 21/19 A2993 RMK A01 T02140185  RH  083%=      5-min Rain = 0
KBI1 271407Z 17013KT 22/19 A2993 RMK A01 T02150186  RH  083%=      5-min Rain = 0
KBI1 271408Z 17013KT 22/19 A2993 RMK A01 T02160187  RH  083%=      5-min Rain = 0
KBI1 271409Z 17016KT 22/19 A2993 RMK A01 T02170186  RH  083%=      5-min Rain = 0
KBI1 271410Z 17017KT 22/18 A2993 RMK A01 T02170184  RH  082%=      5-min Rain = 0
KBI1 271411Z 17015KT 22/18 A2993 RMK A01 T02160184  RH  082%=      5-min Rain = 0
KBI1 271412Z 17019KT 22/18 A2993 RMK A01 T02160184  RH  082%=      5-min Rain = 0
KBI1 271413Z 17017G22KT 22/18 A2993 RMK A01 T02150184  RH  082%=      5-min Rain = 0
KBI1 271414Z 17016KT 22/18 A2993 RMK A01 T02150184  RH  083%=      5-min Rain = 0
KBI1 271415Z 18016KT 22/18 A2993 RMK A01 T02150184  RH  083%=      5-min Rain = 0
KBI1 271416Z 17017KT 22/18 A2993 RMK A01 T02150184  RH  083%=      5-min Rain = 0
KBI1 271417Z 17018KT 22/18 A2993 RMK A01 T02150184  RH  083%=      5-min Rain = 0
KBI1 271418Z 17016KT 22/18 A2993 RMK A01 T02150184  RH  083%=      5-min Rain = 0
KBI1 271419Z 17015G20KT 22/19 A2993 RMK A01 T02160185  RH  083%=      5-min Rain = 0
KBI1 271420Z 17017KT 22/19 A2993 RMK A01 T02170185  RH  082%=      5-min Rain = 0
KBI1 271421Z 17016KT 22/18 A2993 RMK A01 T02170184  RH  082%=      5-min Rain = 0
KBI1 271422Z 18015KT 22/19 A2993 RMK A01 T02180186  RH  082%=      5-min Rain = 0
KBI1 271423Z 18014G19KT 22/19 A2993 RMK A01 T02190186  RH  082%=      5-min Rain = 0
KBI1 271424Z 17016G21KT 22/19 A2993 RMK A01 T02200186  RH  081%=      5-min Rain = 0
KBI1 271425Z 18016G21KT 22/19 A2993 RMK A01 T02200186  RH  081%=      5-min Rain = 0
KBI1 271426Z 17017KT 22/19 A2993 RMK A01 T02200186  RH  081%=      5-min Rain = 0
KBI1 271427Z 17014G20KT 22/19 A2993 RMK A01 T02200185  RH  081%=      5-min Rain = 0
KBI1 271428Z 18014KT 22/19 A2993 RMK A01 T02200187  RH  081%=      5-min Rain = 0
KBI1 271429Z 17017KT 22/19 A2993 RMK A01 T02210185  RH  080%=      5-min Rain = 0
KBI1 271430Z 18015KT 22/19 A2993 RMK A01 T02210186  RH  081%=      5-min Rain = 0
KBI1 271431Z 18014KT 22/19 A2993 RMK A01 T02210186  RH  080%=      5-min Rain = 0
KBI1 271432Z 18015KT 22/19 A2993 RMK A01 T02220185  RH  080%=      5-min Rain = 0
KBI1 271433Z 18016KT 22/19 A2993 RMK A01 T02220186  RH  080%=      5-min Rain = 0
KBI1 271434Z 18014KT 22/19 A2993 RMK A01 T02230187  RH  080%=      5-min Rain = 0
KBI1 271435Z 18017KT 22/19 A2993 RMK A01 T02240187  RH  080%=      5-min Rain = 0
KBI1 271436Z 18017KT 22/19 A2993 RMK A01 T02230186  RH  079%=      5-min Rain = 0
KBI1 271437Z 18017KT 22/19 A2993 RMK A01 T02230186  RH  079%=      5-min Rain = 0
KBI1 271438Z 18018KT 22/19 A2994 RMK A01 T02230185  RH  079%=      5-min Rain = 0
KBI1 271439Z 18014KT 22/19 A2993 RMK A01 T02240186  RH  079%=      5-min Rain = 0
KBI1 271440Z 19014KT 22/19 A2993 RMK A01 T02240186  RH  079%=      5-min Rain = 0
KBI1 271441Z 17011G16KT 23/19 A2994 RMK A01 T02250188  RH  079%=      5-min Rain = 0
KBI1 271442Z 17016KT 23/19 A2993 RMK A01 T02260187  RH  078%=      5-min Rain = 0
KBI1 271443Z 17013KT 23/19 A2993 RMK A01 T02260186  RH  078%=      5-min Rain = 0
KBI1 271444Z 17016KT 23/19 A2993 RMK A01 T02250187  RH  079%=      5-min Rain = 0
KBI1 271445Z 17014G19KT 23/19 A2993 RMK A01 T02250186  RH  079%=      5-min Rain = 0
KBI1 271446Z 17014KT 22/19 A2993 RMK A01 T02240186  RH  079%=      5-min Rain = 0
KBI1 271447Z 18017KT 22/19 A2993 RMK A01 T02240185  RH  078%=      5-min Rain = 0
KBI1 271448Z 18016KT 22/19 A2993 RMK A01 T02240185  RH  078%=      5-min Rain = 0
KBI1 271449Z 18016KT 23/19 A2993 RMK A01 T02250186  RH  079%=      5-min Rain = 0
KBI1 271450Z 18019KT 23/19 A2993 RMK A01 T02250185  RH  078%=      5-min Rain = 0
KBI1 271451Z 18017KT 22/18 A2993 RMK A01 T02230183  RH  078%=      5-min Rain = 0
KBI1 271452Z 17018KT 22/18 A2993 RMK A01 T02230184  RH  079%=      5-min Rain = 0
KBI1 271453Z 17016KT 22/18 A2993 RMK A01 T02240184  RH  078%=      5-min Rain = 0
KBI1 271454Z 17015G20KT 23/19 A2993 RMK A01 T02250185  RH  078%=      5-min Rain = 0
KBI1 271455Z 17017KT 23/19 A2993 RMK A01 T02250185  RH  078%=      5-min Rain = 0
KBI1 271456Z 17016KT 23/18 A2993 RMK A01 T02250184  RH  078%=      5-min Rain = 0
KBI1 271457Z 17014G19KT 22/18 A2993 RMK A01 T02240184  RH  078%=      5-min Rain = 0
KBI1 271458Z 17017KT 22/18 A2993 RMK A01 T02240184  RH  078%=      5-min Rain = 0
KBI1 271459Z 17019KT 22/18 A2993 RMK A01 T02230184  RH  078%=      5-min Rain = 0
KBI1 271500Z 17016KT 22/19 A2993 RMK A01 T02240185  RH  078%=      5-min Rain = 0
KBI1 271501Z 17015KT 23/19 A2993 RMK A01 T02260187  RH  079%=      5-min Rain = 0
KBI1 271502Z 17017KT 23/19 A2993 RMK A01 T02280185  RH  077%=      5-min Rain = 0
KBI1 271503Z 18016KT 23/19 A2993 RMK A01 T02280187  RH  078%=      5-min Rain = 0
KBI1 271504Z 17017KT 23/19 A2993 RMK A01 T02280185  RH  077%=      5-min Rain = 0
KBI1 271505Z 18015KT 23/19 A2993 RMK A01 T02280186  RH  077%=      5-min Rain = 0
KBI1 271506Z 18016KT 23/19 A2993 RMK A01 T02280187  RH  078%=      5-min Rain = 0
KBI1 271507Z 18016KT 23/19 A2993 RMK A01 T02280186  RH  077%=      5-min Rain = 0
KBI1 271508Z 17014KT 23/19 A2993 RMK A01 T02280187  RH  078%=      5-min Rain = 0
KBI1 271509Z 18014KT 23/19 A2993 RMK A01 T02290189  RH  078%=      5-min Rain = 0
KBI1 271510Z 18016G22KT 23/19 A2993 RMK A01 T02310187  RH  077%=      5-min Rain = 0
KBI1 271511Z 18017G22KT 23/19 A2993 RMK A01 T02300186  RH  076%=      5-min Rain = 0
KBI1 271512Z 18014G19KT 23/19 A2993 RMK A01 T02290187  RH  077%=      5-min Rain = 0
KBI1 271513Z 19016KT 23/19 A2993 RMK A01 T02280186  RH  077%=      5-min Rain = 0
KBI1 271514Z 18016KT 23/19 A2993 RMK A01 T02280186  RH  077%=      5-min Rain = 0
KBI1 271515Z 18016KT 23/19 A2993 RMK A01 T02280186  RH  077%=      5-min Rain = 0
KBI1 271516Z 18014G21KT 23/19 A2993 RMK A01 T02280186  RH  077%=      5-min Rain = 0
KBI1 271517Z 18014G19KT 23/19 A2993 RMK A01 T02290189  RH  078%=      5-min Rain = 0
KBI1 271518Z 18013KT 23/19 A2993 RMK A01 T02310189  RH  077%=      5-min Rain = 0
KBI1 271519Z 18014KT 23/19 A2993 RMK A01 T02310189  RH  077%=      5-min Rain = 0
KBI1 271520Z 18014KT 23/19 A2993 RMK A01 T02310189  RH  077%=      5-min Rain = 0
KBI1 271521Z 19015KT 23/19 A2993 RMK A01 T02320188  RH  076%=      5-min Rain = 0
KBI1 271522Z 19014KT 23/19 A2993 RMK A01 T02320188  RH  077%=      5-min Rain = 0
KBI1 271523Z 19016KT 23/19 A2993 RMK A01 T02310187  RH  076%=      5-min Rain = 0
KBI1 271524Z 19014G20KT 23/19 A2993 RMK A01 T02300187  RH  076%=      5-min Rain = 0
KBI1 271525Z 19014KT 23/19 A2994 RMK A01 T02300187  RH  077%=      5-min Rain = 0
KBI1 271526Z 19011KT 23/19 A2993 RMK A01 T02300187  RH  077%=      5-min Rain = 0
KBI1 271527Z 19011KT 23/19 A2993 RMK A01 T02310188  RH  077%=      5-min Rain = 0
KBI1 271528Z 18011KT 23/19 A2993 RMK A01 T02310189  RH  077%=      5-min Rain = 0
KBI1 271529Z 18011KT 23/19 A2993 RMK A01 T02330193  RH  078%=      5-min Rain = 0
KBI1 271530Z 18013KT 24/19 A2993 RMK A01 T02360193  RH  077%=      5-min Rain = 0
KBI1 271531Z 19013KT 24/19 A2993 RMK A01 T02360191  RH  076%=      5-min Rain = 0
KBI1 271532Z 18011KT 24/19 A2993 RMK A01 T02350190  RH  076%=      5-min Rain = 0
KBI1 271533Z 18014G19KT 24/19 A2993 RMK A01 T02350191  RH  076%=      5-min Rain = 0
KBI1 271534Z 18015G20KT 24/19 A2993 RMK A01 T02350190  RH  076%=      5-min Rain = 0
KBI1 271535Z 16015KT 23/19 A2993 RMK A01 T02340190  RH  076%=      5-min Rain = 0
KBI1 271536Z 16015KT 23/19 A2993 RMK A01 T02340189  RH  076%=      5-min Rain = 0
KBI1 271537Z 17016KT 23/19 A2993 RMK A01 T02340189  RH  076%=      5-min Rain = 0
KBI1 271538Z 18017KT 23/19 A2993 RMK A01 T02330188  RH  076%=      5-min Rain = 0
KBI1 271539Z 17015KT 23/19 A2993 RMK A01 T02320188  RH  076%=      5-min Rain = 0
KBI1 271540Z 16015KT 23/19 A2993 RMK A01 T02320188  RH  076%=      5-min Rain = 0
KBI1 271541Z 16014KT 23/19 A2993 RMK A01 T02310187  RH  076%=      5-min Rain = 0
KBI1 271542Z 17013KT 23/19 A2993 RMK A01 T02300187  RH  077%=      5-min Rain = 0
KBI1 271543Z 17013KT 23/19 A2993 RMK A01 T02300188  RH  077%=      5-min Rain = 0
KBI1 271544Z 17014KT 23/19 A2993 RMK A01 T02310188  RH  077%=      5-min Rain = 0
KBI1 271545Z 17010G15KT 23/19 A2993 RMK A01 T02330191  RH  077%=      5-min Rain = 0
KBI1 271546Z 17011KT 24/19 A2993 RMK A01 T02350192  RH  077%=      5-min Rain = 0
KBI1 271547Z 17012KT 24/19 A2993 RMK A01 T02360191  RH  076%=      5-min Rain = 0
KBI1 271548Z 16010KT 24/19 A2993 RMK A01 T02360192  RH  076%=      5-min Rain = 0
KBI1 271549Z 17012KT 24/19 A2993 RMK A01 T02370192  RH  076%=      5-min Rain = 0
KBI1 271550Z 17013KT 24/19 A2993 RMK A01 T02370192  RH  076%=      5-min Rain = 0
KBI1 271551Z 17016KT 24/19 A2993 RMK A01 T02370189  RH  074%=      5-min Rain = 0
KBI1 271552Z 17012KT 24/19 A2993 RMK A01 T02350190  RH  076%=      5-min Rain = 0
KBI1 271553Z 17014KT 24/19 A2993 RMK A01 T02350189  RH  075%=      5-min Rain = 0
KBI1 271554Z 16010KT 24/19 A2993 RMK A01 T02350190  RH  076%=      5-min Rain = 0
KBI1 271555Z 18010KT 24/19 A2993 RMK A01 T02370193  RH  076%=      5-min Rain = 0
KBI1 271556Z 18012KT 24/19 A2993 RMK A01 T02390193  RH  075%=      5-min Rain = 0
KBI1 271557Z 17012KT 24/19 A2993 RMK A01 T02390192  RH  075%=      5-min Rain = 0
KBI1 271558Z 17012KT 24/19 A2993 RMK A01 T02380190  RH  075%=      5-min Rain = 0
KBI1 271559Z 17015KT 24/19 A2993 RMK A01 T02380190  RH  075%=      5-min Rain = 0
KBI1 271600Z 17014KT 24/19 A2993 RMK A01 T02360190  RH  075%=      5-min Rain = 0
KBI1 271601Z 17012KT 24/19 A2993 RMK A01 T02360191  RH  076%=      5-min Rain = 0
KBI1 271602Z 17010KT 24/19 A2993 RMK A01 T02370193  RH  076%=      5-min Rain = 0
KBI1 271603Z 17008KT 24/20 A2993 RMK A01 T02390195  RH  076%=      5-min Rain = 0
KBI1 271604Z 18012KT 24/20 A2993 RMK A01 T02410196  RH  076%=      5-min Rain = 0
KBI1 271605Z 17010G15KT 24/19 A2993 RMK A01 T02420194  RH  075%=      5-min Rain = 0
KBI1 271606Z 16012KT 24/19 A2993 RMK A01 T02410191  RH  073%=      5-min Rain = 0
KBI1 271607Z 15009KT 24/19 A2993 RMK A01 T02400193  RH  075%=      5-min Rain = 0
KBI1 271608Z 16010KT 24/19 A2993 RMK A01 T02400192  RH  074%=      5-min Rain = 0
KBI1 271609Z 17010KT 24/19 A2993 RMK A01 T02400194  RH  075%=      5-min Rain = 0
KBI1 271610Z 17012KT 24/20 A2993 RMK A01 T02420195  RH  075%=      5-min Rain = 0
KBI1 271611Z 18010KT 24/19 A2993 RMK A01 T02420194  RH  074%=      5-min Rain = 0
KBI1 271612Z 17007KT 24/20 A2993 RMK A01 T02420197  RH  076%=      5-min Rain = 0
KBI1 271613Z 17012G17KT 25/20 A2993 RMK A01 T02460200  RH  076%=      5-min Rain = 0
KBI1 271614Z 16012KT 25/19 A2993 RMK A01 T02470194  RH  072%=      5-min Rain = 0
KBI1 271615Z 17015KT 25/19 A2993 RMK A01 T02460194  RH  073%=      5-min Rain = 0
KBI1 271616Z 17013KT 24/19 A2993 RMK A01 T02430192  RH  073%=      5-min Rain = 0
KBI1 271617Z 16012KT 24/19 A2993 RMK A01 T02410193  RH  074%=      5-min Rain = 0
KBI1 271618Z 16011KT 24/19 A2993 RMK A01 T02410192  RH  074%=      5-min Rain = 0
KBI1 271619Z 17011KT 24/19 A2993 RMK A01 T02410194  RH  075%=      5-min Rain = 0
KBI1 271620Z 16010KT 24/20 A2993 RMK A01 T02430195  RH  074%=      5-min Rain = 0
KBI1 271621Z 16010KT 25/20 A2993 RMK A01 T02460200  RH  075%=      5-min Rain = 0
KBI1 271622Z 17011KT 25/20 A2993 RMK A01 T02490197  RH  073%=      5-min Rain = 0
KBI1 271623Z 17012KT 25/20 A2993 RMK A01 T02490196  RH  072%=      5-min Rain = 0
KBI1 271624Z 16011KT 25/20 A2993 RMK A01 T02480195  RH  072%=      5-min Rain = 0
KBI1 271625Z 16011KT 25/20 A2993 RMK A01 T02470196  RH  073%=      5-min Rain = 0
KBI1 271631Z 16010KT 25/20 A2993 RMK A01 T02490198  RH  074%=      5-min Rain = 0
KBI1 271632Z 17010KT 25/20 A2993 RMK A01 T02500198  RH  073%=      5-min Rain = 0
KBI1 271633Z 15011KT 25/20 A2993 RMK A01 T02510197  RH  072%=      5-min Rain = 0
KBI1 271634Z 16012G17KT 25/20 A2993 RMK A01 T02510197  RH  072%=      5-min Rain = 0
KBI1 271635Z 16013KT 25/20 A2993 RMK A01 T02520197  RH  071%=      5-min Rain = 0
KBI1 271636Z 16013KT 25/20 A2992 RMK A01 T02520197  RH  072%=      5-min Rain = 0
KBI1 271637Z 16013KT 25/20 A2992 RMK A01 T02520197  RH  072%=      5-min Rain = 0
KBI1 271638Z 17013KT 25/20 A2992 RMK A01 T02520197  RH  072%=      5-min Rain = 0
KBI1 271639Z 17010KT 25/20 A2992 RMK A01 T02510198  RH  072%=      5-min Rain = 0
KBI1 271640Z 17009KT 25/20 A2992 RMK A01 T02520199  RH  072%=      5-min Rain = 0
KBI1 271641Z 16009KT 25/20 A2992 RMK A01 T02510198  RH  072%=      5-min Rain = 0
KBI1 271642Z 17010KT 25/20 A2992 RMK A01 T02520202  RH  074%=      5-min Rain = 0
KBI1 271643Z 17012KT 25/20 A2992 RMK A01 T02530200  RH  072%=      5-min Rain = 0
KBI1 271644Z 17011KT 25/20 A2992 RMK A01 T02530198  RH  071%=      5-min Rain = 0
KBI1 271645Z 17009KT 25/20 A2992 RMK A01 T02520199  RH  072%=      5-min Rain = 0
KBI1 271646Z 17010KT 25/20 A2992 RMK A01 T02530202  RH  073%=      5-min Rain = 0
KBI1 271647Z 18007KT 26/20 A2992 RMK A01 T02550203  RH  073%=      5-min Rain = 0
KBI1 271648Z 16008KT 26/20 A2992 RMK A01 T02580202  RH  071%=      5-min Rain = 0
KBI1 271649Z 17010KT 26/20 A2992 RMK A01 T02580200  RH  070%=      5-min Rain = 0
KBI1 271650Z 16013KT 26/20 A2992 RMK A01 T02570201  RH  071%=      5-min Rain = 0
KBI1 271651Z 17014KT 26/20 A2992 RMK A01 T02560198  RH  070%=      5-min Rain = 0
KBI1 271652Z 17012KT 26/20 A2992 RMK A01 T02550199  RH  071%=      5-min Rain = 0
KBI1 271653Z 16014KT 25/20 A2992 RMK A01 T02540199  RH  071%=      5-min Rain = 0
KBI1 271654Z 16010KT 26/20 A2992 RMK A01 T02550199  RH  071%=      5-min Rain = 0
KBI1 271655Z 16010KT 25/20 A2992 RMK A01 T02540201  RH  072%=      5-min Rain = 0
KBI1 271656Z 17012KT 26/20 A2992 RMK A01 T02560202  RH  072%=      5-min Rain = 0
KBI1 271657Z 18012KT 26/20 A2992 RMK A01 T02570203  RH  072%=      5-min Rain = 0
KBI1 271658Z 16012KT 26/20 A2992 RMK A01 T02580201  RH  071%=      5-min Rain = 0
KBI1 271659Z 16013KT 26/20 A2992 RMK A01 T02580199  RH  070%=      5-min Rain = 0
KBI1 271700Z 17012KT 26/20 A2991 RMK A01 T02570202  RH  071%=      5-min Rain = 0
KBI1 271701Z 16014KT 26/20 A2991 RMK A01 T02570199  RH  070%=      5-min Rain = 0
KBI1 271702Z 17012G17KT 26/20 A2991 RMK A01 T02570200  RH  071%=      5-min Rain = 0
KBI1 271703Z 16013KT 26/20 A2991 RMK A01 T02570199  RH  070%=      5-min Rain = 0
KBI1 271704Z 16012KT 26/20 A2991 RMK A01 T02570197  RH  069%=      5-min Rain = 0
KBI1 271705Z 17011KT 26/20 A2991 RMK A01 T02560199  RH  071%=      5-min Rain = 0
KBI1 271706Z 16011KT 26/20 A2991 RMK A01 T02570201  RH  071%=      5-min Rain = 0
KBI1 271707Z 17009KT 26/20 A2991 RMK A01 T02590204  RH  071%=      5-min Rain = 0
KBI1 271708Z 16013KT 26/20 A2991 RMK A01 T02610201  RH  069%=      5-min Rain = 0
KBI1 271709Z 15011KT 26/20 A2991 RMK A01 T02610201  RH  069%=      5-min Rain = 0
KBI1 271710Z 17013KT 26/20 A2991 RMK A01 T02610202  RH  070%=      5-min Rain = 0
KBI1 271711Z 17011KT 26/20 A2991 RMK A01 T02610200  RH  069%=      5-min Rain = 0
KBI1 271712Z 17013KT 26/20 A2991 RMK A01 T02600202  RH  071%=      5-min Rain = 0
KBI1 271713Z 17012KT 26/20 A2991 RMK A01 T02600201  RH  070%=      5-min Rain = 0
KBI1 271714Z 17010KT 26/20 A2991 RMK A01 T02610204  RH  071%=      5-min Rain = 0
KBI1 271715Z 17016KT 26/20 A2991 RMK A01 T02630202  RH  069%=      5-min Rain = 0
KBI1 271716Z 18015KT 26/20 A2991 RMK A01 T02620202  RH  069%=      5-min Rain = 0
KBI1 271717Z 15012G17KT 26/20 A2991 RMK A01 T02610201  RH  069%=      5-min Rain = 0
KBI1 271718Z 16015KT 26/20 A2991 RMK A01 T02620201  RH  069%=      5-min Rain = 0
KBI1 271719Z 16013G18KT 26/20 A2991 RMK A01 T02620200  RH  069%=      5-min Rain = 0
KBI1 271720Z 17011G17KT 26/20 A2991 RMK A01 T02620202  RH  069%=      5-min Rain = 0
KBI1 271721Z 17013KT 26/20 A2991 RMK A01 T02620200  RH  069%=      5-min Rain = 0
KBI1 271722Z 17012KT 26/20 A299 RMK A01 T02630203  RH  069%=      5-min Rain = 0
KBI1 271723Z 16014KT 27/21 A299 RMK A01 T02660205  RH  069%=      5-min Rain = 0
KBI1 271724Z 17014KT 27/20 A299 RMK A01 T02660202  RH  068%=      5-min Rain = 0
KBI1 271725Z 17013KT 27/20 A299 RMK A01 T02660204  RH  069%=      5-min Rain = 0
KBI1 271726Z 17012G17KT 27/20 A299 RMK A01 T02650204  RH  069%=      5-min Rain = 0
KBI1 271727Z 17018KT 27/20 A299 RMK A01 T02650203  RH  068%=      5-min Rain = 0
KBI1 271728Z 17013KT 26/20 A299 RMK A01 T02640201  RH  068%=      5-min Rain = 0
KBI1 271729Z 17015KT 26/20 A2991 RMK A01 T02630204  RH  070%=      5-min Rain = 0
KBI1 271730Z 17014G20KT 26/20 A2991 RMK A01 T02640202  RH  069%=      5-min Rain = 0
KBI1 271731Z 18015KT 26/20 A2991 RMK A01 T02640201  RH  068%=      5-min Rain = 0
KBI1 271732Z 18011KT 26/21 A2991 RMK A01 T02640205  RH  070%=      5-min Rain = 0
KBI1 271733Z 19014KT 27/21 A2991 RMK A01 T02660207  RH  070%=      5-min Rain = 0
KBI1 271734Z 17015KT 27/20 A2991 RMK A01 T02660203  RH  068%=      5-min Rain = 0
KBI1 271735Z 19011KT 27/21 A2991 RMK A01 T02660205  RH  069%=      5-min Rain = 0
KBI1 271736Z 18012KT 27/21 A2991 RMK A01 T02680207  RH  069%=      5-min Rain = 0
KBI1 271737Z 16011KT 27/21 A2991 RMK A01 T02690205  RH  068%=      5-min Rain = 0
KBI1 271738Z 16012KT 27/20 A2991 RMK A01 T02690204  RH  068%=      5-min Rain = 0
KBI1 271739Z 17012G18KT 27/21 A2991 RMK A01 T02680205  RH  068%=      5-min Rain = 0
KBI1 271740Z 17010KT 27/21 A2991 RMK A01 T02700208  RH  069%=      5-min Rain = 0
KBI1 271741Z 16010KT 27/21 A2991 RMK A01 T02710207  RH  068%=      5-min Rain = 0
KBI1 271742Z 17010KT 27/21 A2991 RMK A01 T02710205  RH  067%=      5-min Rain = 0
KBI1 271743Z 17012KT 27/21 A2991 RMK A01 T02710207  RH  068%=      5-min Rain = 0
KBI1 271744Z 18012KT 27/20 A2991 RMK A01 T02710204  RH  067%=      5-min Rain = 0
KBI1 271745Z 18012KT 27/21 A2991 RMK A01 T02700206  RH  068%=      5-min Rain = 0
KBI1 271746Z 17011KT 27/20 A2991 RMK A01 T02700203  RH  067%=      5-min Rain = 0
KBI1 271747Z 18010KT 27/21 A2991 RMK A01 T02700207  RH  069%=      5-min Rain = 0
KBI1 271748Z 18013KT 27/21 A2991 RMK A01 T02710210  RH  069%=      5-min Rain = 0
KBI1 271749Z 18011KT 27/21 A299 RMK A01 T02720207  RH  068%=      5-min Rain = 0
KBI1 271750Z 19010KT 27/21 A299 RMK A01 T02720206  RH  067%=      5-min Rain = 0
KBI1 271751Z 18008KT 27/21 A299 RMK A01 T02710210  RH  069%=      5-min Rain = 0
KBI1 271752Z 17010KT 27/21 A299 RMK A01 T02730210  RH  068%=      5-min Rain = 0
KBI1 271753Z 17012KT 27/21 A299 RMK A01 T02740207  RH  067%=      5-min Rain = 0
KBI1 271754Z 17010KT 27/21 A299 RMK A01 T02730205  RH  066%=      5-min Rain = 0
KBI1 271755Z 16011KT 27/21 A299 RMK A01 T02720205  RH  067%=      5-min Rain = 0
KBI1 271756Z 16013KT 27/20 A299 RMK A01 T02710202  RH  066%=      5-min Rain = 0
KBI1 271757Z 17013KT 27/21 A299 RMK A01 T02700206  RH  068%=      5-min Rain = 0
KBI1 271758Z 16010KT 27/21 A299 RMK A01 T02710205  RH  067%=      5-min Rain = 0
KBI1 271759Z 18009KT 27/21 A299 RMK A01 T02710207  RH  068%=      5-min Rain = 0
KBI1 271800Z 19011KT 27/21 A299 RMK A01 T02740209  RH  068%=      5-min Rain = 0
KBI1 271801Z 17011KT 27/20 A299 RMK A01 T02730204  RH  066%=      5-min Rain = 0
KBI1 271802Z 18012KT 27/21 A299 RMK A01 T02720205  RH  067%=      5-min Rain = 0
KBI1 271803Z 16010KT 27/21 A299 RMK A01 T02710205  RH  067%=      5-min Rain = 0
KBI1 271804Z 16011KT 27/21 A299 RMK A01 T02720207  RH  067%=      5-min Rain = 0
KBI1 271805Z 16010G16KT 27/21 A299 RMK A01 T02740206  RH  066%=      5-min Rain = 0
KBI1 271806Z 15009KT 28/21 A299 RMK A01 T02750207  RH  066%=      5-min Rain = 0
KBI1 271807Z 16011KT 28/21 A299 RMK A01 T02760206  RH  066%=      5-min Rain = 0
KBI1 271808Z 17009KT 28/21 A299 RMK A01 T02760206  RH  065%=      5-min Rain = 0
KBI1 271809Z 16008KT 28/21 A299 RMK A01 T02760207  RH  066%=      5-min Rain = 0
KBI1 271810Z 17008G13KT 28/21 A299 RMK A01 T02770207  RH  066%=      5-min Rain = 0
KBI1 271811Z 17013KT 28/21 A2989 RMK A01 T02780207  RH  065%=      5-min Rain = 0
KBI1 271812Z 18012KT 28/21 A299 RMK A01 T02760207  RH  066%=      5-min Rain = 0
KBI1 271813Z 17012KT 28/21 A299 RMK A01 T02760207  RH  066%=      5-min Rain = 0
KBI1 271814Z 17010KT 28/21 A299 RMK A01 T02760205  RH  065%=      5-min Rain = 0
KBI1 271815Z 15008KT 28/21 A299 RMK A01 T02750205  RH  065%=      5-min Rain = 0
KBI1 271816Z 15008KT 28/21 A2989 RMK A01 T02750206  RH  066%=      5-min Rain = 0
KBI1 271817Z 17010KT 28/21 A2989 RMK A01 T02760207  RH  066%=      5-min Rain = 0
KBI1 271818Z 16012KT 28/21 A2989 RMK A01 T02770206  RH  065%=      5-min Rain = 0
KBI1 271819Z 17009KT 28/21 A2989 RMK A01 T02780211  RH  067%=      5-min Rain = 0
KBI1 271820Z 17011KT 28/21 A2989 RMK A01 T02790207  RH  065%=      5-min Rain = 0
KBI1 271821Z 17008KT 28/21 A2989 RMK A01 T02790209  RH  066%=      5-min Rain = 0
KBI1 271822Z 14012G18KT 28/21 A2989 RMK A01 T02790209  RH  066%=      5-min Rain = 0
KBI1 271823Z 16014KT 28/20 A2989 RMK A01 T02780203  RH  064%=      5-min Rain = 0
KBI1 271824Z 16013KT 28/21 A2989 RMK A01 T02770205  RH  065%=      5-min Rain = 0
KBI1 271825Z 17014KT 28/21 A2989 RMK A01 T02770207  RH  066%=      5-min Rain = 0
KBI1 271826Z 16011KT 28/21 A2989 RMK A01 T02770206  RH  065%=      5-min Rain = 0
KBI1 271827Z 17010KT 28/21 A2989 RMK A01 T02770206  RH  065%=      5-min Rain = 0
KBI1 271828Z 16011KT 28/21 A2989 RMK A01 T02770205  RH  065%=      5-min Rain = 0
KBI1 271829Z 17008KT 28/21 A2989 RMK A01 T02770208  RH  066%=      5-min Rain = 0
KBI1 271830Z 16012G18KT 28/21 A2989 RMK A01 T02800212  RH  066%=      5-min Rain = 0
KBI1 271831Z 17014KT 28/21 A2989 RMK A01 T02810209  RH  065%=      5-min Rain = 0
KBI1 271832Z 16015KT 28/20 A2989 RMK A01 T02800204  RH  064%=      5-min Rain = 0
KBI1 271833Z 16011KT 28/20 A2989 RMK A01 T02780204  RH  064%=      5-min Rain = 0
KBI1 271834Z 15007KT 28/21 A2989 RMK A01 T02770208  RH  066%=      5-min Rain = 0
KBI1 271835Z 16011KT 28/21 A2989 RMK A01 T02790208  RH  065%=      5-min Rain = 0
KBI1 271836Z 16012KT 28/21 A2989 RMK A01 T02800205  RH  064%=      5-min Rain = 0
KBI1 271837Z 18013KT 28/21 A2989 RMK A01 T02800207  RH  065%=      5-min Rain = 0
KBI1 271838Z 18012KT 28/21 A2989 RMK A01 T02810205  RH  063%=      5-min Rain = 0
KBI1 271839Z 18012KT 28/21 A2989 RMK A01 T02800206  RH  064%=      5-min Rain = 0
KBI1 271840Z 17014KT 28/21 A2989 RMK A01 T02800209  RH  065%=      5-min Rain = 0
KBI1 271841Z 18012KT 28/21 A2989 RMK A01 T02800207  RH  065%=      5-min Rain = 0
KBI1 271842Z 16010KT 28/21 A2989 RMK A01 T02800206  RH  064%=      5-min Rain = 0
KBI1 271843Z 17011KT 28/21 A2989 RMK A01 T02800207  RH  064%=      5-min Rain = 0
KBI1 271844Z 16011KT 28/21 A2989 RMK A01 T02800207  RH  065%=      5-min Rain = 0
KBI1 271845Z 17010KT 28/21 A2989 RMK A01 T02810207  RH  064%=      5-min Rain = 0
KBI1 271846Z 18012KT 28/21 A2988 RMK A01 T02820208  RH  064%=      5-min Rain = 0
KBI1 271847Z 17014KT 28/21 A2988 RMK A01 T02820207  RH  064%=      5-min Rain = 0
KBI1 271848Z 17011KT 28/21 A2988 RMK A01 T02820208  RH  064%=      5-min Rain = 0
KBI1 271849Z 17013KT 28/21 A2988 RMK A01 T02820209  RH  065%=      5-min Rain = 0
KBI1 271850Z 16014KT 28/21 A2988 RMK A01 T02820207  RH  064%=      5-min Rain = 0
KBI1 271851Z 15012KT 28/21 A2988 RMK A01 T02820205  RH  063%=      5-min Rain = 0
KBI1 271852Z 16013KT 28/20 A2988 RMK A01 T02810203  RH  063%=      5-min Rain = 0
KBI1 271853Z 16009KT 28/21 A2988 RMK A01 T02800205  RH  064%=      5-min Rain = 0
KBI1 271854Z 16011KT 28/21 A2988 RMK A01 T02800207  RH  065%=      5-min Rain = 0
KBI1 271855Z 17014KT 28/21 A2988 RMK A01 T02820208  RH  064%=      5-min Rain = 0
KBI1 271856Z 17013KT 28/21 A2988 RMK A01 T02820206  RH  063%=      5-min Rain = 0
KBI1 271857Z 16010KT 28/21 A2988 RMK A01 T02810207  RH  064%=      5-min Rain = 0
KBI1 271858Z 17008G16KT 28/21 A2988 RMK A01 T02820209  RH  065%=      5-min Rain = 0
KBI1 271859Z 16011KT 28/21 A2988 RMK A01 T02830206  RH  063%=      5-min Rain = 0
KBI1 271900Z 17015KT 28/21 A2988 RMK A01 T02820209  RH  064%=      5-min Rain = 0
KBI1 271901Z 17016KT 28/21 A2988 RMK A01 T02820205  RH  063%=      5-min Rain = 0
KBI1 271902Z 16015KT 28/21 A2988 RMK A01 T02810206  RH  064%=      5-min Rain = 0
KBI1 271903Z 16013KT 28/20 A2988 RMK A01 T02810204  RH  063%=      5-min Rain = 0
KBI1 271904Z 17012G17KT 28/21 A2988 RMK A01 T02810206  RH  064%=      5-min Rain = 0
KBI1 271905Z 17008KT 28/21 A2988 RMK A01 T02820207  RH  064%=      5-min Rain = 0
KBI1 271906Z 15007KT 29/21 A2987 RMK A01 T02850210  RH  064%=      5-min Rain = 0
KBI1 271907Z 17011KT 29/21 A2987 RMK A01 T02860210  RH  064%=      5-min Rain = 0
KBI1 271908Z 19012KT 29/21 A2987 RMK A01 T02860210  RH  063%=      5-min Rain = 0
KBI1 271909Z 17014KT 29/21 A2987 RMK A01 T02860209  RH  063%=      5-min Rain = 0
KBI1 271910Z 17013KT 29/21 A2987 RMK A01 T02860209  RH  063%=      5-min Rain = 0
KBI1 271911Z 17011KT 29/20 A2987 RMK A01 T02860204  RH  061%=      5-min Rain = 0
KBI1 271912Z 16008KT 28/21 A2987 RMK A01 T02840207  RH  063%=      5-min Rain = 0
KBI1 271913Z 16011KT 28/21 A2987 RMK A01 T02840206  RH  062%=      5-min Rain = 0
KBI1 271914Z 17012KT 29/21 A2987 RMK A01 T02850206  RH  062%=      5-min Rain = 0
KBI1 271915Z 17010KT 29/21 A2987 RMK A01 T02850207  RH  063%=      5-min Rain = 0
KBI1 271916Z 16010KT 29/20 A2987 RMK A01 T02850204  RH  062%=      5-min Rain = 0
KBI1 271917Z 15007KT 28/21 A2987 RMK A01 T02830206  RH  063%=      5-min Rain = 0
KBI1 271918Z 17009KT 28/21 A2987 RMK A01 T02840209  RH  064%=      5-min Rain = 0
KBI1 271919Z 16012KT 29/21 A2987 RMK A01 T02860208  RH  063%=      5-min Rain = 0
KBI1 271920Z 17011KT 29/21 A2987 RMK A01 T02870210  RH  063%=      5-min Rain = 0
KBI1 271921Z 17011KT 29/21 A2987 RMK A01 T02880206  RH  061%=      5-min Rain = 0
KBI1 271922Z 17012KT 29/21 A2987 RMK A01 T02880208  RH  062%=      5-min Rain = 0
KBI1 271923Z 16010G15KT 29/20 A2986 RMK A01 T02870204  RH  061%=      5-min Rain = 0
KBI1 271924Z 16011G17KT 29/21 A2986 RMK A01 T02850207  RH  063%=      5-min Rain = 0
KBI1 271925Z 14011KT 29/21 A2986 RMK A01 T02860208  RH  063%=      5-min Rain = 0
KBI1 271926Z 14012KT 29/21 A2986 RMK A01 T02870208  RH  062%=      5-min Rain = 0
KBI1 271927Z 14009G14KT 29/21 A2986 RMK A01 T02870210  RH  063%=      5-min Rain = 0
KBI1 271928Z 16009KT 29/21 A2986 RMK A01 T02870209  RH  063%=      5-min Rain = 0
KBI1 271929Z 14010KT 29/21 A2986 RMK A01 T02880206  RH  061%=      5-min Rain = 0
KBI1 271930Z 17008G14KT 29/21 A2986 RMK A01 T02870210  RH  063%=      5-min Rain = 0
KBI1 271931Z 17013KT 29/21 A2986 RMK A01 T02880209  RH  062%=      5-min Rain = 0
KBI1 271932Z 16011KT 29/21 A2986 RMK A01 T02880207  RH  062%=      5-min Rain = 0
KBI1 271933Z 17014KT 29/21 A2986 RMK A01 T02870207  RH  062%=      5-min Rain = 0
KBI1 271934Z 16013G19KT 29/21 A2986 RMK A01 T02850208  RH  063%=      5-min Rain = 0
KBI1 271935Z 15011G16KT 29/21 A2986 RMK A01 T02850206  RH  062%=      5-min Rain = 0
KBI1 271936Z 15008KT 29/21 A2986 RMK A01 T02850208  RH  063%=      5-min Rain = 0
KBI1 271937Z 16009KT 29/21 A2986 RMK A01 T02860211  RH  064%=      5-min Rain = 0
KBI1 271938Z 16011KT 29/21 A2986 RMK A01 T02890211  RH  063%=      5-min Rain = 0
KBI1 271939Z 16011KT 29/21 A2986 RMK A01 T02890209  RH  062%=      5-min Rain = 0
KBI1 271940Z 15010KT 29/21 A2986 RMK A01 T02890209  RH  062%=      5-min Rain = 0
KBI1 271941Z 15012KT 29/21 A2986 RMK A01 T02880207  RH  061%=      5-min Rain = 0
KBI1 271942Z 16009G14KT 29/21 A2986 RMK A01 T02880207  RH  062%=      5-min Rain = 0
KBI1 271943Z 16013KT 29/21 A2985 RMK A01 T02880206  RH  061%=      5-min Rain = 0
KBI1 271944Z 16012KT 29/21 A2985 RMK A01 T02870207  RH  062%=      5-min Rain = 0
KBI1 271945Z 15011KT 29/21 A2985 RMK A01 T02860208  RH  062%=      5-min Rain = 0
KBI1 271946Z 16012KT 29/21 A2985 RMK A01 T02870205  RH  061%=      5-min Rain = 0
KBI1 271947Z 15010G17KT 29/20 A2985 RMK A01 T02880204  RH  061%=      5-min Rain = 0
KBI1 271948Z 16015KT 29/20 A2985 RMK A01 T02870204  RH  061%=      5-min Rain = 0
KBI1 271949Z 16014G19KT 29/20 A2985 RMK A01 T02860203  RH  061%=      5-min Rain = 0
KBI1 271950Z 16012G18KT 29/20 A2985 RMK A01 T02850203  RH  061%=      5-min Rain = 0
KBI1 271951Z 15013KT 29/21 A2985 RMK A01 T02850205  RH  062%=      5-min Rain = 0
KBI1 271952Z 15013G18KT 29/20 A2985 RMK A01 T02860202  RH  060%=      5-min Rain = 0
KBI1 271953Z 16011G16KT 29/20 A2985 RMK A01 T02860204  RH  061%=      5-min Rain = 0
KBI1 271954Z 16013KT 29/21 A2985 RMK A01 T02870206  RH  062%=      5-min Rain = 0
KBI1 271955Z 16014KT 29/21 A2985 RMK A01 T02880206  RH  061%=      5-min Rain = 0
KBI1 271956Z 17013KT 29/21 A2985 RMK A01 T02890207  RH  061%=      5-min Rain = 0
KBI1 271957Z 18013G18KT 29/21 A2985 RMK A01 T02890206  RH  061%=      5-min Rain = 0
KBI1 271958Z 16010KT 29/21 A2985 RMK A01 T02890206  RH  061%=      5-min Rain = 0
KBI1 271959Z 17013KT 29/20 A2985 RMK A01 T02890204  RH  060%=      5-min Rain = 0
KBI1 272000Z 16009G14KT 29/21 A2985 RMK A01 T02890205  RH  061%=      5-min Rain = 0
KBI1 272001Z 15007KT 29/21 A2985 RMK A01 T02890212  RH  063%=      5-min Rain = 0
KBI1 272002Z 16011KT 29/21 A2985 RMK A01 T02920209  RH  061%=      5-min Rain = 0
KBI1 272003Z 15012KT 29/21 A2985 RMK A01 T02920205  RH  059%=      5-min Rain = 0
KBI1 272004Z 17011KT 29/20 A2985 RMK A01 T02910204  RH  059%=      5-min Rain = 0
KBI1 272005Z 16015KT 29/21 A2985 RMK A01 T02900205  RH  060%=      5-min Rain = 0
KBI1 272006Z 16014G19KT 29/20 A2985 RMK A01 T02890204  RH  060%=      5-min Rain = 0
KBI1 272007Z 16010KT 29/21 A2985 RMK A01 T02890208  RH  061%=      5-min Rain = 0
KBI1 272008Z 16013KT 29/21 A2985 RMK A01 T02910207  RH  061%=      5-min Rain = 0
KBI1 272009Z 17011KT 29/20 A2985 RMK A01 T02910204  RH  059%=      5-min Rain = 0
KBI1 272010Z 16012KT 29/21 A2984 RMK A01 T02900206  RH  061%=      5-min Rain = 0
KBI1 272011Z 16011KT 29/21 A2984 RMK A01 T02900206  RH  061%=      5-min Rain = 0
KBI1 272012Z 17016KT 29/21 A2984 RMK A01 T02910205  RH  060%=      5-min Rain = 0
KBI1 272013Z 17015G20KT 29/20 A2984 RMK A01 T02910202  RH  059%=      5-min Rain = 0
KBI1 272014Z 17013KT 29/20 A2985 RMK A01 T02890202  RH  059%=      5-min Rain = 0
KBI1 272015Z 16011KT 29/20 A2984 RMK A01 T02880204  RH  060%=      5-min Rain = 0
KBI1 272016Z 17009KT 29/20 A2984 RMK A01 T02890204  RH  060%=      5-min Rain = 0
KBI1 272017Z 16011KT 29/21 A2984 RMK A01 T02900206  RH  060%=      5-min Rain = 0
KBI1 272018Z 14009KT 29/21 A2984 RMK A01 T02910207  RH  061%=      5-min Rain = 0
KBI1 272019Z 15009KT 29/21 A2984 RMK A01 T02900207  RH  061%=      5-min Rain = 0
KBI1 272020Z 15011KT 29/21 A2984 RMK A01 T02900208  RH  061%=      5-min Rain = 0
KBI1 272021Z 16009KT 29/21 A2984 RMK A01 T02900208  RH  061%=      5-min Rain = 0
KBI1 272022Z 16008KT 29/21 A2984 RMK A01 T02920212  RH  062%=      5-min Rain = 0
KBI1 272023Z 15010KT 29/21 A2984 RMK A01 T02940212  RH  061%=      5-min Rain = 0
KBI1 272024Z 17010KT 29/21 A2984 RMK A01 T02930205  RH  059%=      5-min Rain = 0
KBI1 272025Z 16011KT 29/21 A2984 RMK A01 T02900209  RH  061%=      5-min Rain = 0
KBI1 272026Z 15008KT 29/21 A2984 RMK A01 T02900209  RH  062%=      5-min Rain = 0
KBI1 272027Z 14009G14KT 29/21 A2984 RMK A01 T02890208  RH  061%=      5-min Rain = 0
KBI1 272028Z 16011G16KT 29/21 A2984 RMK A01 T02900207  RH  061%=      5-min Rain = 0
KBI1 272029Z 16013KT 29/21 A2984 RMK A01 T02900206  RH  060%=      5-min Rain = 0
KBI1 272030Z 17013KT 29/21 A2984 RMK A01 T02910206  RH  060%=      5-min Rain = 0
KBI1 272031Z 16010KT 29/21 A2984 RMK A01 T02900207  RH  061%=      5-min Rain = 0
KBI1 272032Z 15011KT 29/21 A2984 RMK A01 T02900205  RH  060%=      5-min Rain = 0
KBI1 272033Z 14012G18KT 29/21 A2984 RMK A01 T02900206  RH  061%=      5-min Rain = 0
KBI1 272034Z 15010KT 29/21 A2984 RMK A01 T02900207  RH  061%=      5-min Rain = 0
KBI1 272035Z 16011KT 29/21 A2984 RMK A01 T02910205  RH  060%=      5-min Rain = 0
KBI1 272036Z 16009KT 29/21 A2984 RMK A01 T02910209  RH  061%=      5-min Rain = 0
KBI1 272037Z 16014KT 29/21 A2984 RMK A01 T02920208  RH  060%=      5-min Rain = 0
KBI1 272038Z 16012KT 29/21 A2984 RMK A01 T02920205  RH  059%=      5-min Rain = 0
KBI1 272039Z 15012KT 29/21 A2984 RMK A01 T02910205  RH  060%=      5-min Rain = 0
KBI1 272040Z 16010KT 29/21 A2984 RMK A01 T02910205  RH  060%=      5-min Rain = 0
KBI1 272041Z 16012G17KT 29/20 A2984 RMK A01 T02910204  RH  059%=      5-min Rain = 0
KBI1 272042Z 17011G16KT 29/21 A2984 RMK A01 T02910207  RH  060%=      5-min Rain = 0
KBI1 272043Z 16014KT 29/21 A2984 RMK A01 T02930208  RH  060%=      5-min Rain = 0
KBI1 272044Z 17012KT 29/20 A2984 RMK A01 T02930203  RH  059%=      5-min Rain = 0
KBI1 272045Z 17013KT 29/20 A2984 RMK A01 T02900202  RH  059%=      5-min Rain = 0
KBI1 272046Z 17011KT 29/20 A2983 RMK A01 T02880202  RH  060%=      5-min Rain = 0
KBI1 272047Z 16010G15KT 29/21 A2983 RMK A01 T02880207  RH  061%=      5-min Rain = 0
KBI1 272048Z 17013KT 29/21 A2983 RMK A01 T02900207  RH  061%=      5-min Rain = 0
KBI1 272049Z 17013KT 29/21 A2983 RMK A01 T02910207  RH  060%=      5-min Rain = 0
KBI1 272050Z 17009KT 29/21 A2983 RMK A01 T02910208  RH  061%=      5-min Rain = 0
KBI1 272051Z 17011KT 29/21 A2983 RMK A01 T02920206  RH  060%=      5-min Rain = 0
KBI1 272052Z 16009KT 29/21 A2983 RMK A01 T02920207  RH  060%=      5-min Rain = 0
KBI1 272053Z 13010KT 29/21 A2983 RMK A01 T02920208  RH  061%=      5-min Rain = 0
KBI1 272054Z 15011G18KT 29/21 A2983 RMK A01 T02920207  RH  060%=      5-min Rain = 0
KBI1 272055Z 14009G15KT 29/21 A2983 RMK A01 T02920206  RH  060%=      5-min Rain = 0
KBI1 272056Z 13010G15KT 29/21 A2983 RMK A01 T02910206  RH  060%=      5-min Rain = 0
KBI1 272057Z 16009KT 29/21 A2983 RMK A01 T02910208  RH  061%=      5-min Rain = 0
KBI1 272058Z 16009KT 29/21 A2983 RMK A01 T02940209  RH  060%=      5-min Rain = 0
KBI1 272059Z 17013KT 30/21 A2983 RMK A01 T02950208  RH  060%=      5-min Rain = 0
KBI1 272100Z 17013KT 29/21 A2983 RMK A01 T02940208  RH  060%=      5-min Rain = 0
KBI1 272101Z 17013KT 29/21 A2983 RMK A01 T02920209  RH  061%=      5-min Rain = 0
KBI1 272102Z 16011KT 29/21 A2983 RMK A01 T02920205  RH  060%=      5-min Rain = 0
KBI1 272103Z 16011KT 29/21 A2983 RMK A01 T02900209  RH  061%=      5-min Rain = 0
KBI1 272104Z 15011KT 29/21 A2983 RMK A01 T02920206  RH  060%=      5-min Rain = 0
KBI1 272105Z 13013KT 29/21 A2983 RMK A01 T02920207  RH  060%=      5-min Rain = 0
KBI1 272106Z 14009KT 29/21 A2983 RMK A01 T02900208  RH  061%=      5-min Rain = 0
KBI1 272107Z 16009G15KT 29/21 A2982 RMK A01 T02900208  RH  061%=      5-min Rain = 0
KBI1 272108Z 15011KT 29/21 A2983 RMK A01 T02910208  RH  061%=      5-min Rain = 0
KBI1 272109Z 15010KT 29/21 A2983 RMK A01 T02920210  RH  061%=      5-min Rain = 0
KBI1 272110Z 13010KT 29/21 A2982 RMK A01 T02920208  RH  060%=      5-min Rain = 0
KBI1 272111Z 14010G15KT 29/21 A2982 RMK A01 T02920210  RH  061%=      5-min Rain = 0
KBI1 272112Z 16011KT 29/21 A2982 RMK A01 T02920208  RH  060%=      5-min Rain = 0
KBI1 272113Z 16015KT 29/21 A2982 RMK A01 T02920206  RH  060%=      5-min Rain = 0
KBI1 272114Z 17014KT 29/20 A2982 RMK A01 T02910204  RH  059%=      5-min Rain = 0
KBI1 272115Z 16012KT 29/21 A2982 RMK A01 T02890205  RH  060%=      5-min Rain = 0
KBI1 272116Z 15011G17KT 29/21 A2982 RMK A01 T02900208  RH  061%=      5-min Rain = 0
KBI1 272117Z 14010KT 29/20 A2982 RMK A01 T02910204  RH  059%=      5-min Rain = 0
KBI1 272118Z 17010KT 29/20 A2982 RMK A01 T02920204  RH  059%=      5-min Rain = 0
KBI1 272119Z 16010KT 29/21 A2982 RMK A01 T02920205  RH  060%=      5-min Rain = 0
KBI1 272120Z 15014KT 29/20 A2982 RMK A01 T02930201  RH  058%=      5-min Rain = 0
KBI1 272121Z 14011KT 29/20 A2982 RMK A01 T02910200  RH  058%=      5-min Rain = 0
KBI1 272122Z 15014KT 29/20 A2982 RMK A01 T02900202  RH  059%=      5-min Rain = 0
KBI1 272123Z 14010G16KT 29/20 A2982 RMK A01 T02900202  RH  059%=      5-min Rain = 0
KBI1 272124Z 16010KT 29/20 A2982 RMK A01 T02900203  RH  059%=      5-min Rain = 0
KBI1 272125Z 16013KT 29/20 A2982 RMK A01 T02900203  RH  059%=      5-min Rain = 0
KBI1 272126Z 14010KT 29/20 A2982 RMK A01 T02890203  RH  060%=      5-min Rain = 0
KBI1 272127Z 15012KT 29/20 A2982 RMK A01 T02900203  RH  059%=      5-min Rain = 0
KBI1 272128Z 15011KT 29/20 A2981 RMK A01 T02910204  RH  060%=      5-min Rain = 0
KBI1 272129Z 15009KT 29/21 A2981 RMK A01 T02910206  RH  060%=      5-min Rain = 0
KBI1 272130Z 15009KT 29/21 A2981 RMK A01 T02930208  RH  060%=      5-min Rain = 0
KBI1 272131Z 16011KT 29/20 A2981 RMK A01 T02940204  RH  058%=      5-min Rain = 0
KBI1 272132Z 14013G20KT 29/20 A2981 RMK A01 T02940203  RH  058%=      5-min Rain = 0
KBI1 272133Z 16013KT 29/20 A2981 RMK A01 T02940200  RH  057%=      5-min Rain = 0
KBI1 272134Z 16009KT 29/20 A2981 RMK A01 T02920202  RH  059%=      5-min Rain = 0
KBI1 272135Z 16011KT 29/21 A2981 RMK A01 T02920205  RH  060%=      5-min Rain = 0
KBI1 272136Z 16009KT 29/21 A2981 RMK A01 T02930205  RH  059%=      5-min Rain = 0
KBI1 272137Z 14007KT 29/21 A2981 RMK A01 T02930211  RH  061%=      5-min Rain = 0
KBI1 272138Z 17012KT 30/21 A2981 RMK A01 T02950211  RH  061%=      5-min Rain = 0
KBI1 272139Z 16013KT 30/21 A2981 RMK A01 T02950208  RH  059%=      5-min Rain = 0
KBI1 272140Z 15012KT 30/21 A2981 RMK A01 T02950205  RH  058%=      5-min Rain = 0
KBI1 272141Z 16013KT 30/21 A2981 RMK A01 T02950206  RH  059%=      5-min Rain = 0
KBI1 272142Z 17015KT 29/20 A298 RMK A01 T02940203  RH  058%=      5-min Rain = 0
KBI1 272143Z 17015KT 29/20 A298 RMK A01 T02930204  RH  059%=      5-min Rain = 0
KBI1 272144Z 16013KT 29/20 A298 RMK A01 T02930202  RH  058%=      5-min Rain = 0
KBI1 272145Z 16012G18KT 29/20 A298 RMK A01 T02930201  RH  058%=      5-min Rain = 0
KBI1 272146Z 16010KT 29/21 A298 RMK A01 T02930206  RH  060%=      5-min Rain = 0
KBI1 272147Z 16010KT 30/21 A298 RMK A01 T02950206  RH  059%=      5-min Rain = 0
KBI1 272148Z 15009KT 30/21 A298 RMK A01 T02970206  RH  058%=      5-min Rain = 0
KBI1 272149Z 15010KT 30/20 A298 RMK A01 T02980204  RH  057%=      5-min Rain = 0
KBI1 272150Z 16012KT 30/21 A298 RMK A01 T02980207  RH  058%=      5-min Rain = 0
KBI1 272151Z 17014KT 30/20 A298 RMK A01 T02980203  RH  057%=      5-min Rain = 0
KBI1 272152Z 17012KT 30/20 A298 RMK A01 T02970200  RH  056%=      5-min Rain = 0
KBI1 272153Z 17015KT 30/20 A298 RMK A01 T02960200  RH  056%=      5-min Rain = 0
KBI1 272154Z 17013KT 30/20 A298 RMK A01 T02950197  RH  056%=      5-min Rain = 0
KBI1 272155Z 17010KT 29/20 A298 RMK A01 T02940200  RH  057%=      5-min Rain = 0
KBI1 272156Z 15011KT 29/20 A298 RMK A01 T02940198  RH  056%=      5-min Rain = 0
KBI1 272157Z 16011G16KT 29/20 A298 RMK A01 T02940199  RH  057%=      5-min Rain = 0
KBI1 272158Z 15011KT 29/20 A298 RMK A01 T02940203  RH  058%=      5-min Rain = 0
KBI1 272159Z 15010KT 30/20 A298 RMK A01 T02950204  RH  058%=      5-min Rain = 0
KBI1 272200Z 17016G21KT 30/20 A298 RMK A01 T02960202  RH  057%=      5-min Rain = 0
KBI1 272201Z 16016KT 30/20 A298 RMK A01 T02960198  RH  056%=      5-min Rain = 0
KBI1 272202Z 16013G18KT 30/20 A298 RMK A01 T02960195  RH  055%=      5-min Rain = 0
KBI1 272203Z 15012KT 30/20 A298 RMK A01 T02960197  RH  055%=      5-min Rain = 0
KBI1 272204Z 15010KT 30/20 A298 RMK A01 T02950202  RH  057%=      5-min Rain = 0
KBI1 272205Z 14008KT 30/21 A298 RMK A01 T02950205  RH  058%=      5-min Rain = 0
KBI1 272206Z 13007KT 30/21 A2979 RMK A01 T02950207  RH  059%=      5-min Rain = 0
KBI1 272207Z 14010KT 30/21 A2979 RMK A01 T02960206  RH  058%=      5-min Rain = 0
KBI1 272208Z 14010G15KT 30/21 A2979 RMK A01 T02970207  RH  058%=      5-min Rain = 0
KBI1 272209Z 16012KT 30/21 A2979 RMK A01 T02980207  RH  058%=      5-min Rain = 0
KBI1 272210Z 17012KT 30/21 A2979 RMK A01 T02980207  RH  058%=      5-min Rain = 0
KBI1 272211Z 16009KT 30/21 A2979 RMK A01 T02970210  RH  059%=      5-min Rain = 0
KBI1 272212Z 14008G16KT 30/21 A2979 RMK A01 T02980210  RH  059%=      5-min Rain = 0
KBI1 272213Z 14010G16KT 30/21 A2979 RMK A01 T02990208  RH  058%=      5-min Rain = 0
KBI1 272214Z 13010KT 30/21 A2979 RMK A01 T02990205  RH  057%=      5-min Rain = 0
KBI1 272215Z 15010KT 30/21 A2979 RMK A01 T02980206  RH  058%=      5-min Rain = 0
KBI1 272216Z 14010KT 30/20 A2979 RMK A01 T02980202  RH  057%=      5-min Rain = 0
KBI1 272217Z 14011G17KT 30/20 A2979 RMK A01 T02970204  RH  057%=      5-min Rain = 0
KBI1 272218Z 15012G19KT 30/20 A2979 RMK A01 T02970201  RH  056%=      5-min Rain = 0
KBI1 272219Z 14012KT 30/20 A2979 RMK A01 T02960199  RH  056%=      5-min Rain = 0
KBI1 272220Z 14012G18KT 30/20 A2979 RMK A01 T02960199  RH  056%=      5-min Rain = 0
KBI1 272221Z 14013KT 30/20 A2979 RMK A01 T02960197  RH  055%=      5-min Rain = 0
KBI1 272222Z 14013KT 30/20 A2979 RMK A01 T02950197  RH  056%=      5-min Rain = 0
KBI1 272223Z 15010G15KT 30/20 A2979 RMK A01 T02960197  RH  055%=      5-min Rain = 0
KBI1 272224Z 16012KT 30/19 A2979 RMK A01 T02970194  RH  054%=      5-min Rain = 0
KBI1 272225Z 17015KT 30/19 A2979 RMK A01 T02970194  RH  054%=      5-min Rain = 0
KBI1 272226Z 17015KT 30/20 A2979 RMK A01 T02980196  RH  055%=      5-min Rain = 0
KBI1 272227Z 17013KT 30/20 A2979 RMK A01 T02970199  RH  056%=      5-min Rain = 0
KBI1 272228Z 17016KT 30/20 A2979 RMK A01 T02970196  RH  055%=      5-min Rain = 0
KBI1 272229Z 16012G18KT 30/20 A2979 RMK A01 T02970196  RH  055%=      5-min Rain = 0
KBI1 272230Z 15013KT 30/20 A2979 RMK A01 T02970196  RH  055%=      5-min Rain = 0
KBI1 272231Z 15011KT 30/20 A2979 RMK A01 T02970200  RH  056%=      5-min Rain = 0
KBI1 272232Z 16008KT 30/20 A2979 RMK A01 T02970201  RH  056%=      5-min Rain = 0
KBI1 272233Z 16007KT 30/21 A2979 RMK A01 T02990207  RH  058%=      5-min Rain = 0
KBI1 272234Z 16010KT 30/21 A2979 RMK A01 T03020208  RH  057%=      5-min Rain = 0
KBI1 272235Z 15010KT 30/20 A2979 RMK A01 T03030203  RH  055%=      5-min Rain = 0
KBI1 272236Z 16011G16KT 30/20 A2979 RMK A01 T03030201  RH  055%=      5-min Rain = 0
KBI1 272237Z 15012KT 30/20 A2978 RMK A01 T03020201  RH  055%=      5-min Rain = 0
KBI1 272238Z 15011KT 30/20 A2978 RMK A01 T03010203  RH  056%=      5-min Rain = 0
KBI1 272239Z 16009KT 30/20 A2979 RMK A01 T02990204  RH  057%=      5-min Rain = 0
KBI1 272240Z 16010KT 30/21 A2978 RMK A01 T03000206  RH  057%=      5-min Rain = 0
KBI1 272241Z 16010KT 30/21 A2978 RMK A01 T03010206  RH  057%=      5-min Rain = 0
KBI1 272242Z 16010KT 30/21 A2978 RMK A01 T03020210  RH  058%=      5-min Rain = 0
KBI1 272243Z 15009G14KT 30/21 A2978 RMK A01 T03030206  RH  056%=      5-min Rain = 0
KBI1 272244Z 16013G18KT 30/21 A2978 RMK A01 T03030206  RH  056%=      5-min Rain = 0
KBI1 272245Z 15015KT 30/21 A2978 RMK A01 T03020205  RH  056%=      5-min Rain = 0
KBI1 272246Z 17014KT 30/21 A2978 RMK A01 T03010205  RH  056%=      5-min Rain = 0
KBI1 272247Z 17016KT 30/20 A2978 RMK A01 T03000202  RH  056%=      5-min Rain = 0
KBI1 272248Z 16013KT 30/20 A2978 RMK A01 T02990201  RH  056%=      5-min Rain = 0
KBI1 272249Z 17014KT 30/20 A2978 RMK A01 T02990200  RH  055%=      5-min Rain = 0
KBI1 272250Z 17016KT 30/20 A2978 RMK A01 T02990197  RH  054%=      5-min Rain = 0
KBI1 272251Z 16014KT 30/20 A2978 RMK A01 T02980197  RH  054%=      5-min Rain = 0
KBI1 272252Z 17015KT 30/20 A2978 RMK A01 T02980199  RH  055%=      5-min Rain = 0
KBI1 272253Z 16013KT 30/20 A2978 RMK A01 T02980199  RH  055%=      5-min Rain = 0
KBI1 272254Z 16010KT 30/20 A2978 RMK A01 T02980201  RH  056%=      5-min Rain = 0
KBI1 272255Z 16012G18KT 30/20 A2978 RMK A01 T02980200  RH  056%=      5-min Rain = 0
KBI1 272256Z 16013KT 30/20 A2978 RMK A01 T02990196  RH  054%=      5-min Rain = 0
KBI1 272257Z 16012G17KT 30/20 A2978 RMK A01 T02990200  RH  055%=      5-min Rain = 0
KBI1 272258Z 16015G20KT 30/20 A2978 RMK A01 T02990197  RH  055%=      5-min Rain = 0
KBI1 272259Z 17016KT 30/20 A2978 RMK A01 T02990197  RH  054%=      5-min Rain = 0
KBI1 272300Z 16017KT 30/20 A2978 RMK A01 T02980195  RH  054%=      5-min Rain = 0
KBI1 272301Z 16014KT 30/20 A2978 RMK A01 T02970196  RH  054%=      5-min Rain = 0
KBI1 272302Z 16014G19KT 30/19 A2978 RMK A01 T02980193  RH  054%=      5-min Rain = 0
KBI1 272303Z 17016KT 30/19 A2978 RMK A01 T02980192  RH  053%=      5-min Rain = 0
KBI1 272304Z 15015KT 30/19 A2978 RMK A01 T02980192  RH  053%=      5-min Rain = 0
KBI1 272305Z 16015G21KT 30/19 A2978 RMK A01 T02980192  RH  053%=      5-min Rain = 0
KBI1 272306Z 16014G19KT 30/19 A2978 RMK A01 T02970192  RH  053%=      5-min Rain = 0
KBI1 272307Z 15014G21KT 30/19 A2978 RMK A01 T02970193  RH  053%=      5-min Rain = 0
KBI1 272308Z 16012G17KT 30/19 A2978 RMK A01 T02970194  RH  054%=      5-min Rain = 0
KBI1 272309Z 16013KT 30/20 A2978 RMK A01 T02970196  RH  054%=      5-min Rain = 0
KBI1 272310Z 16015KT 30/19 A2977 RMK A01 T02980193  RH  053%=      5-min Rain = 0
KBI1 272311Z 16014G20KT 30/19 A2978 RMK A01 T02980193  RH  053%=      5-min Rain = 0
KBI1 272312Z 16015KT 30/20 A2978 RMK A01 T02980195  RH  054%=      5-min Rain = 0
KBI1 272313Z 16013G18KT 30/20 A2977 RMK A01 T02980196  RH  054%=      5-min Rain = 0
KBI1 272314Z 16011G17KT 30/20 A2978 RMK A01 T02980200  RH  056%=      5-min Rain = 0
KBI1 272315Z 16011KT 30/20 A2977 RMK A01 T02980200  RH  056%=      5-min Rain = 0
KBI1 272316Z 15009KT 30/20 A2977 RMK A01 T02980200  RH  055%=      5-min Rain = 0
KBI1 272317Z 15010KT 30/20 A2977 RMK A01 T02990202  RH  056%=      5-min Rain = 0
KBI1 272318Z 14012G18KT 30/20 A2977 RMK A01 T02990201  RH  056%=      5-min Rain = 0
KBI1 272319Z 16014KT 30/20 A2977 RMK A01 T02990201  RH  056%=      5-min Rain = 0
KBI1 272320Z 15013KT 30/20 A2977 RMK A01 T02980199  RH  055%=      5-min Rain = 0
KBI1 272321Z 15016KT 30/20 A2977 RMK A01 T02980199  RH  055%=      5-min Rain = 0
KBI1 272322Z 15010G15KT 30/20 A2977 RMK A01 T02970201  RH  056%=      5-min Rain = 0
KBI1 272323Z 15013KT 30/20 A2977 RMK A01 T02970201  RH  056%=      5-min Rain = 0
KBI1 272324Z 15011KT 30/20 A2977 RMK A01 T02980201  RH  056%=      5-min Rain = 0
KBI1 272325Z 15010KT 30/20 A2977 RMK A01 T02980203  RH  057%=      5-min Rain = 0
KBI1 272326Z 15011KT 30/20 A2977 RMK A01 T02990203  RH  056%=      5-min Rain = 0
KBI1 272327Z 15013KT 30/20 A2977 RMK A01 T02990204  RH  057%=      5-min Rain = 0
KBI1 272328Z 15013G18KT 30/20 A2977 RMK A01 T03000202  RH  056%=      5-min Rain = 0
KBI1 272329Z 16014KT 30/20 A2977 RMK A01 T03000198  RH  055%=      5-min Rain = 0
KBI1 272330Z 15015G20KT 30/20 A2977 RMK A01 T02990198  RH  055%=      5-min Rain = 0
KBI1 272331Z 16017KT 30/20 A2977 RMK A01 T02990198  RH  055%=      5-min Rain = 0
KBI1 272332Z 16016G21KT 30/20 A2977 RMK A01 T02980198  RH  055%=      5-min Rain = 0
KBI1 272333Z 16017G22KT 30/20 A2977 RMK A01 T02970200  RH  056%=      5-min Rain = 0
KBI1 272334Z 16019KT 30/20 A2976 RMK A01 T02970199  RH  056%=      5-min Rain = 0
KBI1 272335Z 16017KT 30/20 A2977 RMK A01 T02960198  RH  055%=      5-min Rain = 0
KBI1 272336Z 16015G20KT 30/20 A2977 RMK A01 T02970195  RH  054%=      5-min Rain = 0
KBI1 272337Z 16014G20KT 30/20 A2977 RMK A01 T02960196  RH  055%=      5-min Rain = 0
KBI1 272338Z 16017KT 30/20 A2976 RMK A01 T02960196  RH  055%=      5-min Rain = 0
KBI1 272339Z 15013G18KT 30/20 A2976 RMK A01 T02960196  RH  055%=      5-min Rain = 0
KBI1 272340Z 16013KT 30/20 A2976 RMK A01 T02960198  RH  056%=      5-min Rain = 0
KBI1 272341Z 15011G16KT 30/20 A2976 RMK A01 T02960198  RH  056%=      5-min Rain = 0
KBI1 272342Z 15010KT 30/20 A2976 RMK A01 T02970200  RH  056%=      5-min Rain = 0
KBI1 272343Z 15010G19KT 30/20 A2976 RMK A01 T02970202  RH  057%=      5-min Rain = 0
KBI1 272344Z 15014G19KT 30/20 A2976 RMK A01 T02970200  RH  056%=      5-min Rain = 0
KBI1 272345Z 16017G22KT 30/20 A2976 RMK A01 T02970200  RH  056%=      5-min Rain = 0
KBI1 272346Z 15011G18KT 30/20 A2976 RMK A01 T02960201  RH  057%=      5-min Rain = 0
KBI1 272347Z 14013KT 30/20 A2976 RMK A01 T02950201  RH  057%=      5-min Rain = 0
KBI1 272348Z 14014G22KT 30/20 A2976 RMK A01 T02950199  RH  056%=      5-min Rain = 0
KBI1 272349Z 14015G21KT 30/20 A2976 RMK A01 T02950197  RH  056%=      5-min Rain = 0
KBI1 272350Z 15015G20KT 29/20 A2976 RMK A01 T02940197  RH  056%=      5-min Rain = 0
KBI1 272351Z 15014G21KT 29/20 A2976 RMK A01 T02940198  RH  056%=      5-min Rain = 0
KBI1 272352Z 14015G21KT 29/20 A2976 RMK A01 T02930197  RH  056%=      5-min Rain = 0
KBI1 272353Z 15019G24KT 29/20 A2976 RMK A01 T02930196  RH  056%=      5-min Rain = 0
KBI1 272354Z 15016KT 29/20 A2975 RMK A01 T02930196  RH  056%=      5-min Rain = 0
KBI1 272355Z 14012G18KT 29/20 A2976 RMK A01 T02930198  RH  056%=      5-min Rain = 0
KBI1 272356Z 15013KT 29/20 A2976 RMK A01 T02930198  RH  057%=      5-min Rain = 0
KBI1 272357Z 14013G19KT 29/20 A2976 RMK A01 T02930199  RH  057%=      5-min Rain = 0
KBI1 272358Z 16015KT 29/20 A2976 RMK A01 T02930199  RH  057%=      5-min Rain = 0
KBI1 272359Z 16017KT 29/20 A2975 RMK A01 T02930199  RH  057%=      5-min Rain = 0
KBI1 280000Z 15014G20KT 29/20 A2975 RMK A01 T02930198  RH  057%=      5-min Rain = 0
KBI1 280001Z 15014G20KT 29/20 A2975 RMK A01 T02930198  RH  057%=      5-min Rain = 0
KBI1 280002Z 15015KT 29/20 A2975 RMK A01 T02930198  RH  057%=      5-min Rain = 0
KBI1 280003Z 15013KT 29/20 A2975 RMK A01 T02930199  RH  057%=      5-min Rain = 0
KBI1 280004Z 15017G26KT 29/20 A2975 RMK A01 T02930198  RH  057%=      5-min Rain = 0
KBI1 280005Z 15018G23KT 29/20 A2975 RMK A01 T02930196  RH  056%=      5-min Rain = 0
KBI1 280006Z 15013G18KT 29/20 A2975 RMK A01 T02930198  RH  057%=      5-min Rain = 0
KBI1 280007Z 15014KT 29/20 A2975 RMK A01 T02920198  RH  057%=      5-min Rain = 0
KBI1 280008Z 16012KT 29/20 A2975 RMK A01 T02920198  RH  057%=      5-min Rain = 0
KBI1 280009Z 15011G17KT 29/20 A2975 RMK A01 T02920198  RH  057%=      5-min Rain = 0
KBI1 280010Z 16011G16KT 29/20 A2975 RMK A01 T02930199  RH  057%=      5-min Rain = 0
KBI1 280011Z 15012KT 29/20 A2975 RMK A01 T02930198  RH  057%=      5-min Rain = 0
KBI1 280012Z 16014G19KT 29/20 A2975 RMK A01 T02930196  RH  056%=      5-min Rain = 0
KBI1 280013Z 16012KT 29/20 A2975 RMK A01 T02920195  RH  056%=      5-min Rain = 0
KBI1 280014Z 16009KT 29/20 A2975 RMK A01 T02920197  RH  056%=      5-min Rain = 0
KBI1 280015Z 15009G15KT 29/20 A2975 RMK A01 T02920198  RH  057%=      5-min Rain = 0
KBI1 280016Z 15010KT 29/20 A2975 RMK A01 T02920199  RH  057%=      5-min Rain = 0
KBI1 280017Z 16011KT 29/20 A2975 RMK A01 T02920199  RH  057%=      5-min Rain = 0
KBI1 280018Z 15010G15KT 29/20 A2975 RMK A01 T02920199  RH  058%=      5-min Rain = 0
KBI1 280019Z 16012G17KT 29/20 A2975 RMK A01 T02920200  RH  058%=      5-min Rain = 0
KBI1 280020Z 16012G21KT 29/20 A2975 RMK A01 T02920198  RH  057%=      5-min Rain = 0
KBI1 280021Z 16015G24KT 29/20 A2975 RMK A01 T02910197  RH  057%=      5-min Rain = 0
KBI1 280022Z 16016G21KT 29/20 A2975 RMK A01 T02910197  RH  057%=      5-min Rain = 0
KBI1 280023Z 15015KT 29/20 A2975 RMK A01 T02900197  RH  057%=      5-min Rain = 0
KBI1 280024Z 15014G21KT 29/20 A2975 RMK A01 T02900197  RH  057%=      5-min Rain = 0
KBI1 280025Z 15015G20KT 29/20 A2975 RMK A01 T02900195  RH  057%=      5-min Rain = 0
KBI1 280026Z 15013G18KT 29/20 A2975 RMK A01 T02890195  RH  057%=      5-min Rain = 0
KBI1 280027Z 15010G16KT 29/20 A2975 RMK A01 T02890197  RH  057%=      5-min Rain = 0
KBI1 280028Z 15012KT 29/20 A2975 RMK A01 T02890196  RH  057%=      5-min Rain = 0
KBI1 280029Z 16015KT 29/20 A2975 RMK A01 T02890198  RH  058%=      5-min Rain = 0
KBI1 280030Z 15015KT 29/20 A2975 RMK A01 T02880197  RH  058%=      5-min Rain = 0
KBI1 280031Z 15013G20KT 29/20 A2975 RMK A01 T02880197  RH  058%=      5-min Rain = 0
KBI1 280032Z 15012G17KT 29/20 A2975 RMK A01 T02870197  RH  058%=      5-min Rain = 0
KBI1 280033Z 15018G25KT 29/20 A2975 RMK A01 T02880196  RH  058%=      5-min Rain = 0
KBI1 280034Z 15017KT 29/19 A2975 RMK A01 T02870194  RH  057%=      5-min Rain = 0
KBI1 280035Z 14013G20KT 29/20 A2975 RMK A01 T02880195  RH  057%=      5-min Rain = 0
KBI1 280036Z 15014G21KT 29/20 A2974 RMK A01 T02870196  RH  058%=      5-min Rain = 0
KBI1 280037Z 15014G19KT 29/20 A2975 RMK A01 T02870196  RH  058%=      5-min Rain = 0
KBI1 280038Z 15012KT 29/20 A2975 RMK A01 T02870196  RH  058%=      5-min Rain = 0
KBI1 280039Z 15015G20KT 29/20 A2975 RMK A01 T02870196  RH  058%=      5-min Rain = 0
KBI1 280040Z 15016G21KT 29/20 A2974 RMK A01 T02870195  RH  058%=      5-min Rain = 0
KBI1 280041Z 15015KT 29/20 A2974 RMK A01 T02860195  RH  058%=      5-min Rain = 0
KBI1 280042Z 15012G19KT 29/20 A2975 RMK A01 T02860196  RH  058%=      5-min Rain = 0
KBI1 280043Z 15010G16KT 29/20 A2975 RMK A01 T02860198  RH  059%=      5-min Rain = 0
KBI1 280044Z 15016G21KT 29/20 A2975 RMK A01 T02860196  RH  058%=      5-min Rain = 0
KBI1 280045Z 15013G22KT 29/20 A2974 RMK A01 T02860197  RH  059%=      5-min Rain = 0
KBI1 280046Z 15014G19KT 29/20 A2974 RMK A01 T02850196  RH  059%=      5-min Rain = 0
KBI1 280047Z 15011KT 29/20 A2974 RMK A01 T02850196  RH  059%=      5-min Rain = 0
KBI1 280048Z 15015KT 29/20 A2974 RMK A01 T02850196  RH  058%=      5-min Rain = 0
KBI1 280049Z 15014G20KT 29/20 A2974 RMK A01 T02850196  RH  058%=      5-min Rain = 0
KBI1 280050Z 15011G18KT 29/20 A2974 RMK A01 T02850197  RH  059%=      5-min Rain = 0
KBI1 280051Z 15015G20KT 28/20 A2974 RMK A01 T02840195  RH  058%=      5-min Rain = 0
KBI1 280052Z 15012G17KT 28/19 A2974 RMK A01 T02840194  RH  058%=      5-min Rain = 0
KBI1 280053Z 15017G23KT 28/19 A2974 RMK A01 T02840194  RH  058%=      5-min Rain = 0
KBI1 280054Z 15011G18KT 28/19 A2974 RMK A01 T02840193  RH  058%=      5-min Rain = 0
KBI1 280055Z 15015KT 28/19 A2974 RMK A01 T02840193  RH  058%=      5-min Rain = 0
KBI1 280056Z 15016G21KT 28/19 A2974 RMK A01 T02840193  RH  058%=      5-min Rain = 0
KBI1 280057Z 16015KT 28/19 A2975 RMK A01 T02840194  RH  058%=      5-min Rain = 0
KBI1 280058Z 16017KT 28/19 A2974 RMK A01 T02830192  RH  058%=      5-min Rain = 0
KBI1 280059Z 15014KT 28/19 A2974 RMK A01 T02830192  RH  058%=      5-min Rain = 0
KBI1 280100Z 15016KT 28/19 A2974 RMK A01 T02830192  RH  058%=      5-min Rain = 0
KBI1 280101Z 15013G18KT 28/19 A2974 RMK A01 T02830191  RH  057%=      5-min Rain = 0
KBI1 280102Z 15015G21KT 28/19 A2974 RMK A01 T02830191  RH  057%=      5-min Rain = 0
KBI1 280103Z 16016G21KT 28/19 A2975 RMK A01 T02820191  RH  058%=      5-min Rain = 0
KBI1 280104Z 15015G21KT 28/19 A2974 RMK A01 T02820190  RH  057%=      5-min Rain = 0
KBI1 280105Z 16016KT 28/19 A2974 RMK A01 T02820190  RH  057%=      5-min Rain = 0
KBI1 280106Z 15016KT 28/19 A2975 RMK A01 T02820189  RH  057%=      5-min Rain = 0
KBI1 280107Z 16014G25KT 28/19 A2975 RMK A01 T02820189  RH  057%=      5-min Rain = 0
KBI1 280108Z 15014G22KT 28/19 A2975 RMK A01 T02810189  RH  057%=      5-min Rain = 0
KBI1 280109Z 15011KT 28/19 A2975 RMK A01 T02810190  RH  058%=      5-min Rain = 0
KBI1 280110Z 15014KT 28/19 A2975 RMK A01 T02800190  RH  058%=      5-min Rain = 0
KBI1 280111Z 15009KT 28/19 A2975 RMK A01 T02800190  RH  058%=      5-min Rain = 0
KBI1 280112Z 15012G18KT 28/19 A2975 RMK A01 T02790190  RH  058%=      5-min Rain = 0
KBI1 280113Z 15014G21KT 28/19 A2975 RMK A01 T02790189  RH  058%=      5-min Rain = 0
KBI1 280114Z 16015KT 28/19 A2975 RMK A01 T02780189  RH  058%=      5-min Rain = 0
KBI1 280115Z 15014KT 28/19 A2975 RMK A01 T02790189  RH  058%=      5-min Rain = 0
KBI1 280116Z 15013KT 28/19 A2975 RMK A01 T02790189  RH  058%=      5-min Rain = 0
KBI1 280117Z 16011KT 28/19 A2975 RMK A01 T02780189  RH  058%=      5-min Rain = 0
KBI1 280118Z 16012G17KT 28/19 A2975 RMK A01 T02780190  RH  059%=      5-min Rain = 0
KBI1 280119Z 15014G20KT 28/19 A2975 RMK A01 T02770190  RH  059%=      5-min Rain = 0
KBI1 280120Z 15012KT 28/19 A2975 RMK A01 T02770190  RH  059%=      5-min Rain = 0
KBI1 280121Z 15013G21KT 28/19 A2975 RMK A01 T02760190  RH  059%=      5-min Rain = 0
KBI1 280122Z 15014G20KT 28/19 A2975 RMK A01 T02760190  RH  059%=      5-min Rain = 0
KBI1 280123Z 15013KT 28/19 A2975 RMK A01 T02760190  RH  059%=      5-min Rain = 0
KBI1 280124Z 15008KT 28/19 A2975 RMK A01 T02760191  RH  060%=      5-min Rain = 0
KBI1 280125Z 15010KT 28/19 A2975 RMK A01 T02750191  RH  060%=      5-min Rain = 0
KBI1 280126Z 15011G17KT 27/19 A2975 RMK A01 T02740191  RH  060%=      5-min Rain = 0
KBI1 280127Z 16016G21KT 27/19 A2975 RMK A01 T02740190  RH  060%=      5-min Rain = 0
KBI1 280128Z 15011KT 27/19 A2975 RMK A01 T02730190  RH  060%=      5-min Rain = 0
KBI1 280129Z 16014G19KT 27/19 A2975 RMK A01 T02730190  RH  060%=      5-min Rain = 0
KBI1 280130Z 15012G17KT 27/19 A2975 RMK A01 T02730190  RH  061%=      5-min Rain = 0
KBI1 280131Z 15013G18KT 27/19 A2975 RMK A01 T02730190  RH  061%=      5-min Rain = 0
KBI1 280132Z 15012G17KT 27/19 A2975 RMK A01 T02730190  RH  061%=      5-min Rain = 0
KBI1 280133Z 15013KT 27/19 A2975 RMK A01 T02720190  RH  061%=      5-min Rain = 0
KBI1 280134Z 15014KT 27/19 A2975 RMK A01 T02720190  RH  061%=      5-min Rain = 0
KBI1 280135Z 15013G19KT 27/19 A2975 RMK A01 T02720190  RH  060%=      5-min Rain = 0
KBI1 280136Z 15013KT 27/19 A2975 RMK A01 T02720189  RH  060%=      5-min Rain = 0
KBI1 280137Z 16011KT 27/19 A2975 RMK A01 T02720189  RH  060%=      5-min Rain = 0
KBI1 280138Z 15010G15KT 27/19 A2975 RMK A01 T02720190  RH  061%=      5-min Rain = 0
KBI1 280139Z 16015G22KT 27/19 A2975 RMK A01 T02720189  RH  061%=      5-min Rain = 0
KBI1 280140Z 15011KT 27/19 A2975 RMK A01 T02710188  RH  060%=      5-min Rain = 0
KBI1 280141Z 16012KT 27/19 A2975 RMK A01 T02720189  RH  061%=      5-min Rain = 0
KBI1 280142Z 16009KT 27/19 A2975 RMK A01 T02710190  RH  061%=      5-min Rain = 0
KBI1 280143Z 16011KT 27/19 A2975 RMK A01 T02700189  RH  061%=      5-min Rain = 0
KBI1 280144Z 16011G16KT 27/19 A2975 RMK A01 T02690190  RH  062%=      5-min Rain = 0
KBI1 280145Z 15012KT 27/19 A2975 RMK A01 T02690189  RH  062%=      5-min Rain = 0
KBI1 280146Z 16012G21KT 27/19 A2975 RMK A01 T02680189  RH  062%=      5-min Rain = 0
KBI1 280147Z 16013G20KT 27/19 A2975 RMK A01 T02680189  RH  062%=      5-min Rain = 0
KBI1 280148Z 15011G18KT 27/19 A2975 RMK A01 T02680189  RH  062%=      5-min Rain = 0
KBI1 280149Z 15012G19KT 27/19 A2975 RMK A01 T02680189  RH  062%=      5-min Rain = 0
KBI1 280150Z 15011G16KT 27/19 A2975 RMK A01 T02680189  RH  062%=      5-min Rain = 0
KBI1 280151Z 15013G18KT 27/19 A2975 RMK A01 T02670188  RH  062%=      5-min Rain = 0
KBI1 280152Z 15012KT 27/19 A2975 RMK A01 T02670188  RH  062%=      5-min Rain = 0
KBI1 280153Z 15011G19KT 27/19 A2975 RMK A01 T02680189  RH  062%=      5-min Rain = 0
KBI1 280154Z 15015KT 27/19 A2975 RMK A01 T02670188  RH  062%=      5-min Rain = 0
KBI1 280155Z 15012KT 27/19 A2975 RMK A01 T02670188  RH  062%=      5-min Rain = 0
KBI1 280156Z 15014G23KT 27/19 A2975 RMK A01 T02670188  RH  062%=      5-min Rain = 0
KBI1 280157Z 15015KT 27/19 A2975 RMK A01 T02670188  RH  062%=      5-min Rain = 0
KBI1 280158Z 15013G19KT 27/19 A2975 RMK A01 T02670187  RH  062%=      5-min Rain = 0
KBI1 280159Z 15014KT 27/19 A2975 RMK A01 T02670188  RH  062%=      5-min Rain = 0
KBI1 280200Z 16012G17KT 27/19 A2975 RMK A01 T02670188  RH  062%=      5-min Rain = 0
KBI1 280201Z 15013KT 27/19 A2975 RMK A01 T02670188  RH  062%=      5-min Rain = 0
KBI1 280202Z 14012G17KT 27/19 A2975 RMK A01 T02670187  RH  062%=      5-min Rain = 0
KBI1 280203Z 15014G20KT 27/19 A2975 RMK A01 T02670187  RH  062%=      5-min Rain = 0
KBI1 280204Z 15013G19KT 27/19 A2975 RMK A01 T02660187  RH  062%=      5-min Rain = 0
KBI1 280205Z 16014G20KT 27/19 A2975 RMK A01 T02660187  RH  062%=      5-min Rain = 0
KBI1 280206Z 15012G17KT 27/19 A2975 RMK A01 T02670188  RH  062%=      5-min Rain = 0
KBI1 280207Z 16013KT 27/19 A2975 RMK A01 T02660187  RH  062%=      5-min Rain = 0
KBI1 280208Z 15012G17KT 27/19 A2975 RMK A01 T02660188  RH  062%=      5-min Rain = 0
KBI1 280209Z 15012KT 27/19 A2975 RMK A01 T02650187  RH  062%=      5-min Rain = 0
KBI1 280210Z 16011G17KT 27/19 A2975 RMK A01 T02650187  RH  062%=      5-min Rain = 0
KBI1 280211Z 15012G17KT 26/19 A2975 RMK A01 T02640187  RH  063%=      5-min Rain = 0
KBI1 280212Z 15011KT 26/19 A2975 RMK A01 T02640188  RH  063%=      5-min Rain = 0
KBI1 280213Z 15011KT 26/19 A2975 RMK A01 T02630188  RH  063%=      5-min Rain = 0
KBI1 280214Z 15011KT 26/19 A2975 RMK A01 T02630188  RH  063%=      5-min Rain = 0
KBI1 280215Z 16010G16KT 26/19 A2975 RMK A01 T02620188  RH  064%=      5-min Rain = 0
KBI1 280216Z 16010G15KT 26/19 A2975 RMK A01 T02620188  RH  064%=      5-min Rain = 0
KBI1 280217Z 15012G17KT 26/19 A2975 RMK A01 T02610188  RH  064%=      5-min Rain = 0
KBI1 280218Z 15011G16KT 26/19 A2975 RMK A01 T02610188  RH  064%=      5-min Rain = 0
KBI1 280219Z 15011G17KT 26/19 A2975 RMK A01 T02610188  RH  064%=      5-min Rain = 0
KBI1 280220Z 15012KT 26/19 A2975 RMK A01 T02610188  RH  064%=      5-min Rain = 0
KBI1 280221Z 15013G18KT 26/19 A2975 RMK A01 T02610188  RH  064%=      5-min Rain = 0
KBI1 280222Z 14011KT 26/19 A2975 RMK A01 T02620189  RH  064%=      5-min Rain = 0
KBI1 280223Z 15012G17KT 26/19 A2975 RMK A01 T02620189  RH  064%=      5-min Rain = 0
KBI1 280224Z 15013G18KT 26/19 A2975 RMK A01 T02620189  RH  064%=      5-min Rain = 0
KBI1 280225Z 15012G17KT 26/19 A2975 RMK A01 T02610189  RH  064%=      5-min Rain = 0
KBI1 280226Z 15013KT 26/19 A2975 RMK A01 T02610188  RH  064%=      5-min Rain = 0
KBI1 280227Z 15013KT 26/19 A2975 RMK A01 T02620189  RH  064%=      5-min Rain = 0
KBI1 280228Z 15012G17KT 26/19 A2975 RMK A01 T02620189  RH  064%=      5-min Rain = 0
KBI1 280229Z 15013G19KT 26/19 A2975 RMK A01 T02610189  RH  064%=      5-min Rain = 0
KBI1 280230Z 16016G21KT 26/19 A2975 RMK A01 T02610188  RH  064%=      5-min Rain = 0
KBI1 280231Z 16013G18KT 26/19 A2975 RMK A01 T02620188  RH  064%=      5-min Rain = 0
KBI1 280232Z 16013KT 26/19 A2975 RMK A01 T02620189  RH  064%=      5-min Rain = 0
KBI1 280233Z 15013G18KT 26/19 A2975 RMK A01 T02620188  RH  064%=      5-min Rain = 0
KBI1 280234Z 16012G17KT 26/19 A2975 RMK A01 T02620188  RH  064%=      5-min Rain = 0
KBI1 280235Z 15012KT 26/19 A2975 RMK A01 T02620188  RH  064%=      5-min Rain = 0
KBI1 280236Z 15011G17KT 26/19 A2975 RMK A01 T02620189  RH  064%=      5-min Rain = 0
KBI1 280237Z 15008G18KT 26/19 A2975 RMK A01 T02610189  RH  064%=      5-min Rain = 0
KBI1 280238Z 15011G16KT 26/19 A2975 RMK A01 T02600188  RH  065%=      5-min Rain = 0
KBI1 280239Z 15013KT 26/19 A2975 RMK A01 T02610189  RH  064%=      5-min Rain = 0
KBI1 280240Z 15013G18KT 26/19 A2975 RMK A01 T02600188  RH  064%=      5-min Rain = 0
KBI1 280241Z 14011G16KT 26/19 A2975 RMK A01 T02600188  RH  064%=      5-min Rain = 0
KBI1 280242Z 16012G19KT 26/19 A2975 RMK A01 T02600189  RH  065%=      5-min Rain = 0
KBI1 280243Z 15013KT 26/19 A2975 RMK A01 T02600188  RH  065%=      5-min Rain = 0
KBI1 280244Z 15010KT 26/19 A2975 RMK A01 T02600188  RH  065%=      5-min Rain = 0
KBI1 280245Z 16015G22KT 26/19 A2975 RMK A01 T02590188  RH  065%=      5-min Rain = 0
KBI1 280246Z 15012G20KT 26/19 A2975 RMK A01 T02600187  RH  064%=      5-min Rain = 0
KBI1 280247Z 15014G21KT 26/19 A2975 RMK A01 T02590188  RH  064%=      5-min Rain = 0
KBI1 280248Z 15012KT 26/19 A2975 RMK A01 T02600187  RH  064%=      5-min Rain = 0
KBI1 280249Z 15011KT 26/19 A2975 RMK A01 T02600188  RH  064%=      5-min Rain = 0
KBI1 280250Z 15013G21KT 26/19 A2975 RMK A01 T02590187  RH  065%=      5-min Rain = 0
KBI1 280251Z 15015KT 26/19 A2975 RMK A01 T02590186  RH  064%=      5-min Rain = 0
KBI1 280252Z 15013KT 26/19 A2975 RMK A01 T02590186  RH  064%=      5-min Rain = 0
KBI1 280253Z 15011G16KT 26/19 A2975 RMK A01 T02580186  RH  064%=      5-min Rain = 0
KBI1 280254Z 15013G20KT 26/19 A2975 RMK A01 T02590187  RH  064%=      5-min Rain = 0
KBI1 280255Z 15012KT 26/19 A2975 RMK A01 T02580187  RH  065%=      5-min Rain = 0
KBI1 280256Z 15014KT 26/19 A2975 RMK A01 T02580186  RH  065%=      5-min Rain = 0
KBI1 280257Z 16013G18KT 26/19 A2975 RMK A01 T02580186  RH  064%=      5-min Rain = 0
KBI1 280258Z 16014G20KT 26/19 A2975 RMK A01 T02580186  RH  064%=      5-min Rain = 0
KBI1 280259Z 15014G20KT 26/19 A2975 RMK A01 T02580185  RH  064%=      5-min Rain = 0
KBI1 280300Z 15015G20KT 26/19 A2975 RMK A01 T02580185  RH  064%=      5-min Rain = 0
KBI1 280301Z 15013G19KT 26/19 A2975 RMK A01 T02580185  RH  064%=      5-min Rain = 0
KBI1 280302Z 15014KT 26/18 A2975 RMK A01 T02590184  RH  064%=      5-min Rain = 0
KBI1 280303Z 16015KT 26/18 A2975 RMK A01 T02590184  RH  064%=      5-min Rain = 0
KBI1 280304Z 16016KT 26/19 A2975 RMK A01 T02580185  RH  064%=      5-min Rain = 0
KBI1 280305Z 16011G16KT 26/18 A2975 RMK A01 T02580184  RH  064%=      5-min Rain = 0
KBI1 280306Z 16014G22KT 26/19 A2975 RMK A01 T02580185  RH  064%=      5-min Rain = 0
KBI1 280307Z 16017KT 26/18 A2975 RMK A01 T02580183  RH  064%=      5-min Rain = 0
KBI1 280308Z 16013KT 26/18 A2975 RMK A01 T02580184  RH  063%=      5-min Rain = 0
KBI1 280309Z 15013KT 26/18 A2975 RMK A01 T02580184  RH  063%=      5-min Rain = 0
KBI1 280310Z 15016KT 26/18 A2975 RMK A01 T02580183  RH  063%=      5-min Rain = 0
KBI1 280311Z 15012KT 26/18 A2975 RMK A01 T02580183  RH  063%=      5-min Rain = 0
KBI1 280312Z 16012KT 26/18 A2975 RMK A01 T02570183  RH  064%=      5-min Rain = 0
KBI1 280313Z 16014G19KT 26/18 A2975 RMK A01 T02570183  RH  064%=      5-min Rain = 0
KBI1 280314Z 15013G19KT 26/18 A2975 RMK A01 T02560182  RH  064%=      5-min Rain = 0
KBI1 280315Z 15012G17KT 26/18 A2975 RMK A01 T02560182  RH  063%=      5-min Rain = 0
KBI1 280316Z 15012KT 26/18 A2975 RMK A01 T02570182  RH  063%=      5-min Rain = 0
KBI1 280317Z 16016G22KT 26/18 A2975 RMK A01 T02560182  RH  064%=      5-min Rain = 0
KBI1 280318Z 15013G18KT 26/18 A2975 RMK A01 T02560182  RH  064%=      5-min Rain = 0
KBI1 280319Z 16013KT 26/18 A2975 RMK A01 T02560182  RH  064%=      5-min Rain = 0
KBI1 280320Z 16014G22KT 26/18 A2975 RMK A01 T02560182  RH  063%=      5-min Rain = 0
KBI1 280321Z 15015G21KT 26/18 A2975 RMK A01 T02560181  RH  063%=      5-min Rain = 0
KBI1 280322Z 16016KT 26/18 A2975 RMK A01 T02560181  RH  063%=      5-min Rain = 0
KBI1 280323Z 16015KT 26/18 A2975 RMK A01 T02560180  RH  063%=      5-min Rain = 0
KBI1 280324Z 15012G17KT 26/18 A2975 RMK A01 T02560180  RH  063%=      5-min Rain = 0
KBI1 280325Z 16014KT 26/18 A2975 RMK A01 T02560180  RH  063%=      5-min Rain = 0
KBI1 280326Z 16017KT 26/18 A2975 RMK A01 T02560179  RH  063%=      5-min Rain = 0
KBI1 280327Z 16015KT 26/18 A2975 RMK A01 T02560179  RH  062%=      5-min Rain = 0
KBI1 280328Z 16014KT 26/18 A2975 RMK A01 T02560179  RH  062%=      5-min Rain = 0
KBI1 280329Z 16014G20KT 26/18 A2975 RMK A01 T02560179  RH  062%=      5-min Rain = 0
KBI1 280330Z 15015KT 26/18 A2975 RMK A01 T02560179  RH  062%=      5-min Rain = 0
KBI1 280331Z 16016KT 26/18 A2975 RMK A01 T02560178  RH  062%=      5-min Rain = 0
KBI1 280332Z 16014KT 26/18 A2975 RMK A01 T02560178  RH  062%=      5-min Rain = 0
KBI1 280333Z 16013G19KT 26/18 A2975 RMK A01 T02560179  RH  062%=      5-min Rain = 0
KBI1 280334Z 16013KT 26/18 A2975 RMK A01 T02560179  RH  062%=      5-min Rain = 0
KBI1 280335Z 16014G19KT 26/18 A2975 RMK A01 T02550178  RH  062%=      5-min Rain = 0
KBI1 280336Z 16013KT 26/18 A2975 RMK A01 T02550178  RH  062%=      5-min Rain = 0
KBI1 280337Z 16016KT 26/18 A2975 RMK A01 T02550178  RH  063%=      5-min Rain = 0
KBI1 280338Z 16015KT 25/18 A2975 RMK A01 T02540178  RH  062%=      5-min Rain = 0
KBI1 280339Z 16011G19KT 26/18 A2975 RMK A01 T02550178  RH  063%=      5-min Rain = 0
KBI1 280340Z 16013KT 25/18 A2975 RMK A01 T02540178  RH  063%=      5-min Rain = 0
KBI1 280341Z 16012KT 25/18 A2975 RMK A01 T02540178  RH  063%=      5-min Rain = 0
KBI1 280342Z 15015G21KT 25/18 A2975 RMK A01 T02540178  RH  063%=      5-min Rain = 0
KBI1 280343Z 16014KT 25/18 A2975 RMK A01 T02540177  RH  063%=      5-min Rain = 0
KBI1 280344Z 16014KT 25/18 A2975 RMK A01 T02540177  RH  063%=      5-min Rain = 0
KBI1 280345Z 16010G16KT 25/18 A2976 RMK A01 T02530178  RH  063%=      5-min Rain = 0
KBI1 280346Z 16011KT 25/18 A2976 RMK A01 T02530178  RH  063%=      5-min Rain = 0
KBI1 280347Z 17014G19KT 25/18 A2976 RMK A01 T02520178  RH  063%=      5-min Rain = 0
KBI1 280348Z 16010KT 25/18 A2976 RMK A01 T02520178  RH  063%=      5-min Rain = 0
KBI1 280349Z 16012KT 25/18 A2976 RMK A01 T02510178  RH  064%=      5-min Rain = 0
KBI1 280350Z 17013KT 25/18 A2976 RMK A01 T02510178  RH  064%=      5-min Rain = 0
KBI1 280351Z 17012KT 25/18 A2976 RMK A01 T02510178  RH  064%=      5-min Rain = 0
KBI1 280352Z 16014G19KT 25/18 A2976 RMK A01 T02510177  RH  064%=      5-min Rain = 0
KBI1 280353Z 16014G19KT 25/18 A2976 RMK A01 T02510177  RH  064%=      5-min Rain = 0
KBI1 280354Z 16016G21KT 25/18 A2976 RMK A01 T02510177  RH  063%=      5-min Rain = 0
KBI1 280355Z 16013KT 25/18 A2976 RMK A01 T02520177  RH  063%=      5-min Rain = 0
KBI1 280356Z 16013KT 25/18 A2976 RMK A01 T02520177  RH  063%=      5-min Rain = 0
KBI1 280357Z 16013KT 25/18 A2976 RMK A01 T02510177  RH  063%=      5-min Rain = 0
KBI1 280358Z 16014KT 25/18 A2976 RMK A01 T02510176  RH  063%=      5-min Rain = 0
KBI1 280359Z 16013KT 25/18 A2976 RMK A01 T02510176  RH  063%=      5-min Rain = 0
KBI1 280400Z 16014KT 25/18 A2976 RMK A01 T02510176  RH  063%=      5-min Rain = 0
KBI1 280401Z 16013KT 25/18 A2976 RMK A01 T02510176  RH  063%=      5-min Rain = 0
KBI1 280402Z 16013KT 25/18 A2976 RMK A01 T02510176  RH  063%=      5-min Rain = 0
KBI1 280403Z 16014KT 25/18 A2976 RMK A01 T02510176  RH  063%=      5-min Rain = 0
KBI1 280404Z 16011KT 25/18 A2976 RMK A01 T02510175  RH  063%=      5-min Rain = 0
KBI1 280405Z 16012G17KT 25/18 A2976 RMK A01 T02510175  RH  063%=      5-min Rain = 0
KBI1 280406Z 17013G20KT 25/18 A2976 RMK A01 T02500175  RH  063%=      5-min Rain = 0
KBI1 280407Z 16012G17KT 25/17 A2976 RMK A01 T02500174  RH  063%=      5-min Rain = 0
KBI1 280408Z 16013KT 25/17 A2976 RMK A01 T02510174  RH  063%=      5-min Rain = 0
KBI1 280409Z 17013KT 25/17 A2976 RMK A01 T02500174  RH  063%=      5-min Rain = 0
KBI1 280410Z 17014KT 25/17 A2976 RMK A01 T02500173  RH  062%=      5-min Rain = 0
KBI1 280411Z 17016G21KT 25/17 A2976 RMK A01 T02510173  RH  062%=      5-min Rain = 0
KBI1 280412Z 17014KT 25/17 A2976 RMK A01 T02510173  RH  062%=      5-min Rain = 0
KBI1 280413Z 17014KT 25/17 A2977 RMK A01 T02510173  RH  062%=      5-min Rain = 0
KBI1 280414Z 17012KT 25/17 A2977 RMK A01 T02510173  RH  062%=      5-min Rain = 0
KBI1 280415Z 16011KT 25/17 A2977 RMK A01 T02510173  RH  062%=      5-min Rain = 0
KBI1 280416Z 17012KT 25/17 A2977 RMK A01 T02500172  RH  062%=      5-min Rain = 0
KBI1 280417Z 17012KT 25/17 A2977 RMK A01 T02500172  RH  062%=      5-min Rain = 0
KBI1 280418Z 17014G20KT 25/17 A2977 RMK A01 T02500173  RH  062%=      5-min Rain = 0
KBI1 280419Z 16010G16KT 25/17 A2977 RMK A01 T02490173  RH  062%=      5-min Rain = 0
KBI1 280420Z 16015G20KT 25/17 A2976 RMK A01 T02490172  RH  062%=      5-min Rain = 0
KBI1 280421Z 15014KT 25/17 A2976 RMK A01 T02490171  RH  062%=      5-min Rain = 0
KBI1 280422Z 16011KT 25/17 A2976 RMK A01 T02500172  RH  062%=      5-min Rain = 0
KBI1 280423Z 17011KT 25/17 A2976 RMK A01 T02500172  RH  062%=      5-min Rain = 0
KBI1 280424Z 16010KT 25/17 A2976 RMK A01 T02500172  RH  062%=      5-min Rain = 0
KBI1 280425Z 16010KT 25/17 A2976 RMK A01 T02490172  RH  062%=      5-min Rain = 0
KBI1 280426Z 16011KT 25/17 A2976 RMK A01 T02490172  RH  062%=      5-min Rain = 0
KBI1 280427Z 16010KT 25/17 A2976 RMK A01 T02480173  RH  063%=      5-min Rain = 0
KBI1 280428Z 16010G15KT 25/17 A2976 RMK A01 T02470172  RH  063%=      5-min Rain = 0
KBI1 280429Z 16014KT 25/17 A2976 RMK A01 T02460172  RH  063%=      5-min Rain = 0
KBI1 280430Z 16011KT 25/17 A2976 RMK A01 T02470172  RH  063%=      5-min Rain = 0
KBI1 280431Z 15010G15KT 25/17 A2976 RMK A01 T02470172  RH  063%=      5-min Rain = 0
KBI1 280432Z 16012KT 25/17 A2976 RMK A01 T02470172  RH  063%=      5-min Rain = 0
KBI1 280433Z 16011KT 25/17 A2976 RMK A01 T02470172  RH  063%=      5-min Rain = 0
KBI1 280434Z 16010KT 25/17 A2976 RMK A01 T02470173  RH  063%=      5-min Rain = 0
KBI1 280435Z 16012KT 25/17 A2976 RMK A01 T02470173  RH  063%=      5-min Rain = 0
KBI1 280436Z 16010KT 25/17 A2976 RMK A01 T02470173  RH  063%=      5-min Rain = 0
KBI1 280437Z 17010KT 25/17 A2976 RMK A01 T02470173  RH  064%=      5-min Rain = 0
KBI1 280438Z 16009KT 25/17 A2976 RMK A01 T02450173  RH  064%=      5-min Rain = 0
KBI1 280439Z 16012KT 25/17 A2976 RMK A01 T02450173  RH  064%=      5-min Rain = 0
KBI1 280440Z 16010KT 25/17 A2976 RMK A01 T02450173  RH  064%=      5-min Rain = 0
KBI1 280441Z 15010KT 24/17 A2976 RMK A01 T02440173  RH  064%=      5-min Rain = 0
KBI1 280442Z 16011KT 24/17 A2976 RMK A01 T02440174  RH  065%=      5-min Rain = 0
KBI1 280443Z 16013KT 24/17 A2976 RMK A01 T02440174  RH  065%=      5-min Rain = 0
KBI1 280444Z 16012KT 24/17 A2976 RMK A01 T02440174  RH  065%=      5-min Rain = 0
KBI1 280445Z 16012G18KT 24/17 A2976 RMK A01 T02440173  RH  065%=      5-min Rain = 0
KBI1 280446Z 16011KT 24/17 A2976 RMK A01 T02440173  RH  065%=      5-min Rain = 0
KBI1 280447Z 16012G17KT 24/17 A2976 RMK A01 T02440174  RH  065%=      5-min Rain = 0
KBI1 280448Z 16011KT 24/17 A2976 RMK A01 T02440174  RH  065%=      5-min Rain = 0
KBI1 280449Z 16012KT 24/17 A2976 RMK A01 T02440174  RH  065%=      5-min Rain = 0
KBI1 280450Z 16011KT 24/17 A2976 RMK A01 T02440174  RH  065%=      5-min Rain = 0
KBI1 280451Z 16013KT 24/17 A2975 RMK A01 T02440174  RH  065%=      5-min Rain = 0
KBI1 280452Z 16013KT 24/17 A2975 RMK A01 T02440174  RH  065%=      5-min Rain = 0
KBI1 280453Z 16012G17KT 24/17 A2975 RMK A01 T02440174  RH  065%=      5-min Rain = 0
KBI1 280454Z 15013G18KT 24/17 A2975 RMK A01 T02440174  RH  065%=      5-min Rain = 0
KBI1 280455Z 16012KT 24/17 A2975 RMK A01 T02440174  RH  065%=      5-min Rain = 0
KBI1 280456Z 16013KT 24/17 A2975 RMK A01 T02440174  RH  065%=      5-min Rain = 0
KBI1 280457Z 16012KT 24/17 A2975 RMK A01 T02440174  RH  065%=      5-min Rain = 0
KBI1 280458Z 16013KT 24/17 A2975 RMK A01 T02440174  RH  065%=      5-min Rain = 0
KBI1 280459Z 16013KT 24/17 A2975 RMK A01 T02440174  RH  065%=      5-min Rain = 0

Page generated in 0.118 seconds.